Long past the 1.5 TiB barrier...

PRE DATA

Datetime Release
2019-03-25 00:00:01 SLAM_MIXMARATHON_-_Kris_Kross_Amsterdam-CABLE-03-22-2019-TALiON
2019-03-25 00:01:03 Lefto-In_the_Mix_(Studio_Brussel)-CABLE-24-03-2019-1KING
2019-03-25 00:03:31 XPERTSKILLS.CERTIFIED.ETHICAL.HACKER.CEH.V.10-iLLiTERATE
2019-03-25 00:04:08 Buscarse.La.Vida.En.America.S01E01.SPANiSH.1080p.WEB.h264-4FiRE
2019-03-25 00:04:18 Shingeki.no.Bahamut.Manaria.Friends.E10.SUBFRENCH.1080p.WEB.x264-AMB3R
2019-03-25 00:04:37 Buscarse.La.Vida.En.America.S01E02.SPANiSH.1080p.WEB.h264-4FiRE
2019-03-25 00:04:51 Buscarse.La.Vida.En.America.S01E03.SPANiSH.1080p.WEB.h264-4FiRE
2019-03-25 00:05:12 Buscarse.La.Vida.En.America.S01E04.SPANiSH.1080p.WEB.h264-4FiRE
2019-03-25 00:05:32 Buscarse.La.Vida.En.America.S01E05.SPANiSH.1080p.WEB.h264-4FiRE
2019-03-25 00:05:57 Buscarse.La.Vida.En.America.S01E06.SPANiSH.1080p.WEB.h264-4FiRE
2019-03-25 00:06:15 Buscarse.La.Vida.En.America.S01E07.SPANiSH.1080p.WEB.h264-4FiRE
2019-03-25 00:06:32 Buscarse.La.Vida.En.America.S01E08.SPANiSH.1080p.WEB.h264-4FiRE
2019-03-25 00:06:53 Buscarse.La.Vida.En.America.S02E01.SPANiSH.1080p.WEB.h264-4FiRE
2019-03-25 00:07:13 Buscarse.La.Vida.En.America.S02E02.SPANiSH.1080p.WEB.h264-4FiRE
2019-03-25 00:07:34 Buscarse.La.Vida.En.America.S02E03.SPANiSH.1080p.WEB.h264-4FiRE
2019-03-25 00:07:54 Buscarse.La.Vida.En.America.S02E04.SPANiSH.1080p.WEB.h264-4FiRE
2019-03-25 00:08:16 Buscarse.La.Vida.En.America.S02E05.SPANiSH.1080p.WEB.h264-4FiRE
2019-03-25 00:08:34 Buscarse.La.Vida.En.America.S02E06.SPANiSH.1080p.WEB.h264-4FiRE
2019-03-25 00:08:56 Buscarse.La.Vida.En.America.S02E07.SPANiSH.1080p.WEB.h264-4FiRE
2019-03-25 00:09:15 Buscarse.La.Vida.En.America.S02E08.SPANiSH.1080p.WEB.h264-4FiRE
2019-03-25 00:11:05 Hughesy.We.Have.A.Problem.S03E09.WEB.H264-FLX
2019-03-25 00:11:10 Wann.endlich.kuesst.Du.mich.2016.German.720p.WebHD.x264-HQOD
2019-03-25 00:11:52 Totengebet.2019.German.720p.WebHD.x264-HQOD
2019-03-25 00:12:35 Zoom.Jenseits.des.Meeres.2015.German.Subbed.720p.HDTV.x264-HQOD
2019-03-25 00:13:43 Das.Weibernest.2001.German.720p.HDTV.x264-HQOD
2019-03-25 00:14:00 Ressurectz_-_K.O-(RSR018)-WEB-2019-MMS
2019-03-25 00:16:23 Restoration.Australia.S02E02.WEB.x264-FLX
2019-03-25 00:20:47 Ras.S01E22.NORWEGiAN.720p.WEB.x264-NORPiLT
2019-03-25 00:21:15 XPERTSKILLS.MICROSOFT.70-698.INSTALLING.AND.CONFIGURING.WINDOWS.10-iLLiTERATE
2019-03-25 00:21:33 Ras.S01E21.NORWEGiAN.720p.WEB.x264-NORPiLT
2019-03-25 00:22:20 Traitors.S01E06.720p.HDTV.x264-MTB
2019-03-25 00:22:59 Traitors.S01E06.HDTV.x264-MTB
2019-03-25 00:26:09 Dog.Detectives.S01E06.Making.The.Grade.WEB.x264-UNDERBELLY
2019-03-25 00:27:08 Dog.Detectives.S01E06.Making.The.Grade.720p.WEB.x264-UNDERBELLY
2019-03-25 00:28:00 Ras.S01E23.NORWEGiAN.720p.WEB.x264-NORPiLT
2019-03-25 00:28:11 Dog.Detectives.S01E06.Making.The.Grade.1080p.WEB.x264-UNDERBELLY
2019-03-25 00:30:00 Ras.S01E24.NORWEGiAN.720p.WEB.x264-NORPiLT
2019-03-25 00:32:01 Ambulansen.S01E13.NORWEGiAN.720p.WEB.x264-NORPiLT
2019-03-25 00:34:01 Ambulansen.S01E14.NORWEGiAN.720p.WEB.x264-NORPiLT
2019-03-25 00:34:38 XPERTSKILLS.COMPTIA.PENTEST.PLUS.PT0-001-iLLiTERATE
2019-03-25 00:35:13 Giada.Entertains.S04E10.Dog.Park.Picnic.720p.HDTV.x264-W4F
2019-03-25 00:35:19 Giada.Entertains.S04E10.Dog.Park.Picnic.HDTV.x264-W4F
2019-03-25 00:36:01 Ambulansen.S01E15.NORWEGiAN.720p.WEB.x264-NORPiLT
2019-03-25 00:38:03 Ambulansen.S01E16.NORWEGiAN.720p.WEB.x264-NORPiLT
2019-03-25 00:38:40 Berlin.Station.S03E03.FRENCH.HDTV.x264-AMB3R
2019-03-25 00:38:47 Berlin.Station.S03E04.FRENCH.HDTV.x264-AMB3R
2019-03-25 00:43:42 DJ_Osso-A_Qualcuno_Piace_Happy-DAB-03-11-2019-G4E
2019-03-25 00:44:07 DJ_Osso-A_Qualcuno_Piace_Happy-DAB-03-12-2019-G4E
2019-03-25 00:44:10 DJ_Osso-A_Qualcuno_Piace_Happy-DAB-03-13-2019-G4E
2019-03-25 00:44:13 DJ_Osso-A_Qualcuno_Piace_Happy-DAB-03-14-2019-G4E
2019-03-25 00:44:19 DJ_Osso-A_Qualcuno_Piace_Happy-DAB-03-15-2019-G4E
2019-03-25 00:44:29 DJ_Osso-Happy_Edition-DAB-03-10-2019-G4E
2019-03-25 00:44:34 DJ_Osso-Happy_Edition-DAB-03-17-2019-G4E
2019-03-25 00:44:40 Marco_Mazzoli-Lo_Zoo_Di_105-DAB-03-11-2019-G4E
2019-03-25 00:45:31 Marco_Mazzoli-Lo_Zoo_Di_105-DAB-03-12-2019-G4E
2019-03-25 00:45:36 Marco_Mazzoli-Lo_Zoo_Di_105-DAB-03-13-2019-G4E
2019-03-25 00:45:39 Marco_Mazzoli-Lo_Zoo_Di_105-DAB-03-14-2019-G4E
2019-03-25 00:45:45 Marco_Mazzoli-Lo_Zoo_Di_105-DAB-03-15-2019-G4E
2019-03-25 00:45:57 Marco_Mazzoli-Lo_Zoo_Di_105-DAB-03-18-2019-G4E
2019-03-25 00:46:01 Marco_Mazzoli-Lo_Zoo_Di_105-DAB-03-19-2019-G4E
2019-03-25 00:46:05 Marco_Mazzoli-Lo_Zoo_Di_105-DAB-03-20-2019-G4E
2019-03-25 00:46:09 Marco_Mazzoli-Lo_Zoo_Di_105-DAB-03-21-2019-G4E
2019-03-25 00:46:19 Marco_Mazzoli-Lo_Zoo_Di_105-DAB-03-22-2019-G4E
2019-03-25 00:46:28 Rferrari_DJ_Angelo-Ciao_Belli-DAB-03-11-2019-G4E
2019-03-25 00:46:31 Rferrari_DJ_Angelo-Ciao_Belli-DAB-03-12-2019-G4E
2019-03-25 00:46:35 Rferrari_DJ_Angelo-Ciao_Belli-DAB-03-13-2019-G4E
2019-03-25 00:46:40 Rferrari_DJ_Angelo-Ciao_Belli-DAB-03-14-2019-G4E
2019-03-25 00:46:44 Rferrari_DJ_Angelo-Ciao_Belli-DAB-03-15-2019-G4E
2019-03-25 00:46:53 Rferrari_DJ_Angelo-Ciao_Belli-DAB-03-18-2019-G4E
2019-03-25 00:46:57 Rferrari_DJ_Angelo-Ciao_Belli-DAB-03-19-2019-G4E
2019-03-25 00:47:01 Rferrari_DJ_Angelo-Ciao_Belli-DAB-03-20-2019-G4E
2019-03-25 00:47:05 Rferrari_DJ_Angelo-Ciao_Belli-DAB-03-21-2019-G4E
2019-03-25 00:47:09 Rferrari_DJ_Angelo-Ciao_Belli-DAB-03-22-2019-G4E
2019-03-25 00:47:17 Roberto_Molinaro-Real_Trust_(Piero_Ciampi)-DAB-03-10-2019-G4E
2019-03-25 00:47:23 Nick_the_Nightfly-Monte_Carlo_Nights-DAB-03-12-2019-G4E
2019-03-25 00:47:28 Nick_the_Nightfly-Monte_Carlo_Nights-DAB-03-15-2019-G4E
2019-03-25 00:47:33 Nick_the_Nightfly-Monte_Carlo_Nights-DAB-03-19-2019-G4E
2019-03-25 00:47:38 Nick_the_Nightfly-Monte_Carlo_Nights-DAB-03-21-2019-G4E
2019-03-25 00:53:49 XPERTSKILLS.COMPTIA.ADVANCED.SECURITY.PRACTITIONER.CASP.CAS-003-iLLiTERATE
2019-03-25 00:58:31 Silicon.Valley.S01E01.SPANiSH.1080p.WEB.h264-4FiRE
2019-03-25 00:58:50 Silicon.Valley.S01E02.SPANiSH.1080p.WEB.h264-4FiRE
2019-03-25 00:59:10 Silicon.Valley.S01E03.SPANiSH.1080p.WEB.h264-4FiRE
2019-03-25 00:59:17 Good.Will.Hunting.1997.German.DL.1080p.BluRay.AVC-SAViOURHD
2019-03-25 00:59:34 Silicon.Valley.S01E04.SPANiSH.1080p.WEB.h264-4FiRE
2019-03-25 00:59:50 Silicon.Valley.S01E05.SPANiSH.1080p.WEB.h264-4FiRE
2019-03-25 01:00:15 Silicon.Valley.S01E06.SPANiSH.1080p.WEB.h264-4FiRE
2019-03-25 01:00:35 Silicon.Valley.S01E07.SPANiSH.1080p.WEB.h264-4FiRE
2019-03-25 01:00:53 Silicon.Valley.S01E08.SPANiSH.1080p.WEB.h264-4FiRE
2019-03-25 01:01:12 Silicon.Valley.S02E01.SPANiSH.1080p.WEB.h264-4FiRE
2019-03-25 01:01:38 Silicon.Valley.S02E02.SPANiSH.1080p.WEB.h264-4FiRE
2019-03-25 01:01:58 Silicon.Valley.S02E03.SPANiSH.1080p.WEB.h264-4FiRE
2019-03-25 01:02:16 Silicon.Valley.S02E04.SPANiSH.1080p.WEB.h264-4FiRE
2019-03-25 01:02:30 Trapped.2015.S02E07.FRENCH.HDTV.x264-AMB3R
2019-03-25 01:02:35 Silicon.Valley.S02E05.SPANiSH.1080p.WEB.h264-4FiRE
2019-03-25 01:02:45 Trapped.2015.S02E08.FRENCH.HDTV.x264-AMB3R
2019-03-25 01:02:54 Silicon.Valley.S02E06.SPANiSH.1080p.WEB.h264-4FiRE
2019-03-25 01:03:14 Silicon.Valley.S02E07.SPANiSH.1080p.WEB.h264-4FiRE
2019-03-25 01:03:37 Silicon.Valley.S02E08.SPANiSH.1080p.WEB.h264-4FiRE
2019-03-25 01:03:58 Silicon.Valley.S02E09.SPANiSH.1080p.WEB.h264-4FiRE
2019-03-25 01:04:17 Silicon.Valley.S02E10.SPANiSH.1080p.WEB.h264-4FiRE
2019-03-25 01:04:25 The.Simpsons.S30E18.WEB.x264-TBS
2019-03-25 01:04:28 The.Simpsons.S30E18.1080p.WEB.x264-TBS
2019-03-25 01:04:41 The.Simpsons.S30E18.720p.WEB.x264-TBS
2019-03-25 01:11:14 Inside.Central.Station.S01E04.720p.HDTV.x264-QPEL
2019-03-25 01:12:49 Naked.and.Afraid.S10E06.WEB.x264-TBS
2019-03-25 01:13:39 Naked.and.Afraid.S10E06.720p.WEB.x264-TBS
2019-03-25 01:14:24 Naked.and.Afraid.S10E06.1080p.WEB.x264-TBS
2019-03-25 01:18:47 Race.Across.The.World.S01E04.HDTV.x264-PLUTONiUM
2019-03-25 01:22:21 Action.2019.S01E01.1080p.WEB.h264-TBS
2019-03-25 01:22:35 Race.Across.The.World.S01E04.720p.HDTV.x264-PLUTONiUM
2019-03-25 01:22:59 Action.2019.S01E01.720p.WEB.h264-TBS
2019-03-25 01:23:23 Action.2019.S01E01.WEB.h264-TBS
2019-03-25 01:30:10 God.Friended.Me.S01E18.720p.HDTV.x264-aAF
2019-03-25 01:30:29 God.Friended.Me.S01E18.HDTV.x264-aAF
2019-03-25 01:34:10 Bobs.Burgers.S09E18.WEB.x264-TBS
2019-03-25 01:34:17 Bobs.Burgers.S09E18.1080p.WEB.x264-TBS
2019-03-25 01:34:20 Bobs.Burgers.S09E18.720p.WEB.x264-TBS
2019-03-25 01:37:25 Ringu.0.2000.COMPLETE.BLURAY-VEXHD
2019-03-25 01:43:06 Madam.Secretary.S05E17.720p.HDTV.x264-KILLERS
2019-03-25 01:44:16 Madam.Secretary.S05E17.HDTV.x264-KILLERS
2019-03-25 01:47:17 The.Misadventures.of.Romesh.Ranganathan.S01E02.Ethiopia.1080p.HDTV.H264-UNDERBELLY
2019-03-25 01:48:22 The.Pacific.S01E01.iNTERNAL.SPANiSH.1080p.WEB.h264-4FiRE
2019-03-25 01:48:41 The.Pacific.S01E02.iNTERNAL.SPANiSH.1080p.WEB.h264-4FiRE
2019-03-25 01:49:04 The.Pacific.S01E03.iNTERNAL.SPANiSH.1080p.WEB.h264-4FiRE
2019-03-25 01:49:23 The.Pacific.S01E04.iNTERNAL.SPANiSH.1080p.WEB.h264-4FiRE
2019-03-25 01:49:43 The.Pacific.S01E05.iNTERNAL.SPANiSH.1080p.WEB.h264-4FiRE
2019-03-25 01:50:05 The.Pacific.S01E06.iNTERNAL.SPANiSH.1080p.WEB.h264-4FiRE
2019-03-25 01:50:26 The.Pacific.S01E07.iNTERNAL.SPANiSH.1080p.WEB.h264-4FiRE
2019-03-25 01:50:46 The.Pacific.S01E08.iNTERNAL.SPANiSH.1080p.WEB.h264-4FiRE
2019-03-25 01:51:06 Traitors.S01E06.1080p.HDTV.x264-MTB
2019-03-25 01:51:11 The.Pacific.S01E09.iNTERNAL.SPANiSH.1080p.WEB.h264-4FiRE
2019-03-25 01:51:28 The.Pacific.S01E10.iNTERNAL.SPANiSH.1080p.WEB.h264-4FiRE
2019-03-25 01:59:37 8.Out.Of.10.Cats.S21E01.PDTV.x264-PLUTONiUM
2019-03-25 01:59:55 Bilal_Hassani-Fais_Beleck-SINGLE-WEB-FR-2019-OND
2019-03-25 02:00:12 Supergirl.S04E16.720p.HDTV.x264-AVS
2019-03-25 02:00:48 Supergirl.S04E16.HDTV.x264-SVA
2019-03-25 02:00:56 Bilal_Hassani-Jaloux-SINGLE-WEB-FR-2019-OND
2019-03-25 02:01:12 Bonusfamiljen.S03E05.SWEDiSH.720p.WEB.H264-AVRATTNING
2019-03-25 02:01:17 Fraga.Doktorn.S23E06.SWEDiSH.720p.WEB.H264-EXECUTION
2019-03-25 02:01:41 Inside.Central.Station.S01E04.HDTV.x264-PLUTONiUM
2019-03-25 02:01:58 Dika-Narcotrafiquant_(Feat_Cor)_(Cargaison_2)-SINGLE-WEB-FR-2019-OND
2019-03-25 02:02:21 Family.Guy.S17E16.WEB.x264-TBS
2019-03-25 02:02:28 Family.Guy.S17E16.1080p.WEB.x264-TBS
2019-03-25 02:02:36 Family.Guy.S17E16.720p.WEB.x264-TBS
2019-03-25 02:02:58 Noruff-Passe-Passe-WEB-FR-2019-OND
2019-03-25 02:06:53 Stockholmspolisen.S02E07.SWEDiSH.720p.WEB.X264-EXECUTION
2019-03-25 02:07:58 Stockholmspolisen.S02E07.SWEDiSH.1080p.WEB.X264-EXECUTION
2019-03-25 02:08:10 Noruff-Cauchemars_A_Paname_(Version_Instrumentale)-WEB-2016-OND
2019-03-25 02:10:27 Wicked.Tuna.S08E03.Wreck.It.Ralph.720p.WEB.x264-CAFFEiNE
2019-03-25 02:12:52 Wicked.Tuna.S08E03.Wreck.It.Ralph.WEB.x264-CAFFEiNE
2019-03-25 02:28:04 Oak.Island.Fluch.und.Legende.S06E06.Tunnel.Labyrinth.GERMAN.DL.DOKU.1080p.HDTV.x264-MDGP
2019-03-25 02:47:15 Two.Tails.2018.COMPLETE.PAL.DVDR-WaLMaRT
2019-03-25 02:57:08 Ufo.2018.COMPLETE.PAL.DVDR-WaLMaRT
2019-03-25 02:59:18 Charmed.2018.S01E16.720p.HDTV.x264-SVA
2019-03-25 02:59:27 NCIS.Los.Angeles.S10E18.720p.HDTV.x264-AVS
2019-03-25 02:59:51 Charmed.2018.S01E16.HDTV.x264-SVA
2019-03-25 03:00:07 NCIS.Los.Angeles.S10E18.HDTV.x264-SVA
2019-03-25 03:02:41 Sommerhytta.S03E09.NORWEGiAN.720p.WEB.H264-HENRETTELSE
2019-03-25 03:05:53 Alt.For.Kliken.S01E05.DANISH.1080p.WEB.h264-FFD
2019-03-25 03:08:01 God.Friended.Me.S01E18.1080p.HDTV.x264-LucidTV
2019-03-25 03:18:28 The.Walking.Dead.S09E15.SUBFRENCH.HDTV.x264-AMB3R
2019-03-25 03:18:32 Alaskan.Bush.People.S09E04.WEBRip.x264-TBS
2019-03-25 03:21:59 The.Walking.Dead.S09E15.WEB.h264-TBS
2019-03-25 03:22:51 The.Walking.Dead.S09E15.720p.WEB.h264-TBS
2019-03-25 03:23:29 Kevin_Knapp-Club_FG-SAT-03-23-2019-PTC
2019-03-25 03:23:51 Alaskan.Bush.People.S09E04.720p.WEBRip.x264-TBS
2019-03-25 03:24:08 Groover-Liquid_Radio-SAT-03-25-2019-PTC
2019-03-25 03:24:59 The.Walking.Dead.S09E15.1080p.WEB.h264-TBS
2019-03-25 03:25:09 The.Walking.Dead.S09E15.720p.HDTV.x264-AVS
2019-03-25 03:25:58 The.Walking.Dead.S09E15.HDTV.x264-SVA
2019-03-25 03:28:16 4.Blocks.S02E04.FRENCH.HDTV.x264-AMB3R
2019-03-25 03:33:40 Buddy.vs.Duff.S01E03.Its.a.Dogs.Life.720p.WEBRip.x264-CAFFEiNE
2019-03-25 03:35:58 Big.Brother.Canada.S07E09.720p.HDTV.x264-aAF
2019-03-25 03:36:49 Big.Brother.Canada.S07E09.HDTV.x264-aAF
2019-03-25 03:38:22 Buddy.vs.Duff.S01E03.Its.a.Dogs.WEBRip.x264-CAFFEiNE
2019-03-25 03:52:24 NCIS.Los.Angeles.S10E18.1080p.HDTV.x264-LucidTV
2019-03-25 03:57:16 Supergirl.S04E16.1080p.HDTV.x264-LucidTV
2019-03-25 03:59:06 Monki_-_BBC_Radio1s_Residency-SAT-03-25-2019-TALiON
2019-03-25 04:01:10 Danny_Byrd_-_BBC_Radio1s_Residency-SAT-03-25-2019-TALiON
2019-03-25 04:01:25 Mission.Declassified.S01E01.Escape.from.Alcatraz.720p.WEBRip.x264-CAFFEiNE
2019-03-25 04:03:18 David_Guetta_-_Guetta_BPM-SAT-03-24-2019-TALiON
2019-03-25 04:03:49 Mission.Declassified.S01E01.Escape.from.Alcatraz.WEBRip.x264-CAFFEiNE
2019-03-25 04:10:15 Philthy_Rich-East_Oakland_Legend-SINGLE-WEB-2019-ESG
2019-03-25 04:10:32 Tha_Homie_Jai-No_Problems_(Feat._Skrich_Baby_Rush_1k_And_King_Dough)-SINGLE-WEB-2017-ESG
2019-03-25 04:11:58 L_Dot-FasT_Life-WEB-2019-ESG
2019-03-25 04:16:43 Charmed.2018.S01E16.1080p.HDTV.x264-LucidTV
2019-03-25 04:17:21 The.Real.Housewives.of.Atlanta.S11E19.No.Money.Mo.Problems.720p.HDTV.x264-CRiMSON
2019-03-25 04:17:41 The.Real.Housewives.of.Atlanta.S11E19.No.Money.Mo.Problems.HDTV.x264-CRiMSON
2019-03-25 04:19:01 Sister.Wives.S13E09.WEB.x264-TBS
2019-03-25 04:19:31 Sister.Wives.S13E09.1080p.WEB.x264-TBS
2019-03-25 04:19:37 Sister.Wives.S13E09.720p.WEB.x264-TBS
2019-03-25 04:23:35 Into.the.Badlands.S03E09.720p.WEB.h264-TBS
2019-03-25 04:25:18 Into.the.Badlands.S03E09.WEB.h264-TBS
2019-03-25 04:26:53 Into.the.Badlands.S03E09.720p.HDTV.x264-AVS
2019-03-25 04:27:29 Into.the.Badlands.S03E09.HDTV.x264-SVA
2019-03-25 04:28:18 Into.the.Badlands.S03E09.1080p.WEB.h264-TBS
2019-03-25 04:31:01 Britains.Favourite.Crisps.2019.720p.HDTV.x264-PLUTONiUM
2019-03-25 04:32:02 Britains.Favourite.Crisps.2019.1080p.HDTV.h264-PLUTONiUM
2019-03-25 04:33:46 Animals.S01E01.SPANiSH.1080p.WEB.h264-4FiRE
2019-03-25 04:34:06 Animals.S01E01.SPANiSH.720p.WEB.h264-4FiRE
2019-03-25 04:34:27 Animals.S01E01.SPANiSH.WEB.h264-4FiRE
2019-03-25 04:34:47 Inside.Central.Station.S01E04.1080p.HDTV.x264-PLUTONiUM
2019-03-25 04:34:49 Animals.S01E02.SPANiSH.1080p.WEB.h264-4FiRE
2019-03-25 04:35:07 Animals.S01E02.SPANiSH.720p.WEB.h264-4FiRE
2019-03-25 04:35:28 Animals.S01E02.SPANiSH.WEB.h264-4FiRE
2019-03-25 04:35:48 Animals.S01E03.SPANiSH.1080p.WEB.h264-4FiRE
2019-03-25 04:36:08 Animals.S01E03.SPANiSH.720p.WEB.h264-4FiRE
2019-03-25 04:36:29 Animals.S01E03.SPANiSH.WEB.h264-4FiRE
2019-03-25 04:36:50 Animals.S01E04.SPANiSH.1080p.WEB.h264-4FiRE
2019-03-25 04:37:12 Animals.S01E04.SPANiSH.720p.WEB.h264-4FiRE
2019-03-25 04:37:31 Animals.S01E04.SPANiSH.WEB.h264-4FiRE
2019-03-25 04:37:51 Animals.S01E05.SPANiSH.1080p.WEB.h264-4FiRE
2019-03-25 04:38:11 Animals.S01E05.SPANiSH.720p.WEB.h264-4FiRE
2019-03-25 04:38:32 Animals.S01E05.SPANiSH.WEB.h264-4FiRE
2019-03-25 04:38:52 Animals.S01E06.SPANiSH.1080p.WEB.h264-4FiRE
2019-03-25 04:39:13 Animals.S01E06.SPANiSH.720p.WEB.h264-4FiRE
2019-03-25 04:39:32 Animals.S01E06.SPANiSH.WEB.h264-4FiRE
2019-03-25 04:39:52 Animals.S01E07.SPANiSH.1080p.WEB.h264-4FiRE
2019-03-25 04:40:13 Animals.S01E07.SPANiSH.720p.WEB.h264-4FiRE
2019-03-25 04:40:34 Animals.S01E07.SPANiSH.WEB.h264-4FiRE
2019-03-25 04:40:38 Police.Interceptors.S16E02.HDTV.x264-PLUTONiUM
2019-03-25 04:40:54 Animals.S01E08.SPANiSH.1080p.WEB.h264-4FiRE
2019-03-25 04:41:15 Animals.S01E08.SPANiSH.720p.WEB.h264-4FiRE
2019-03-25 04:41:36 Animals.S01E08.SPANiSH.WEB.h264-4FiRE
2019-03-25 04:41:42 Police.Interceptors.S16E02.720p.HDTV.x264-PLUTONiUM
2019-03-25 04:41:58 Animals.S01E09.SPANiSH.1080p.WEB.h264-4FiRE
2019-03-25 04:42:17 Animals.S01E09.SPANiSH.720p.WEB.h264-4FiRE
2019-03-25 04:42:37 Animals.S01E09.SPANiSH.WEB.h264-4FiRE
2019-03-25 04:42:43 Police.Interceptors.S16E02.1080p.HDTV.x264-PLUTONiUM
2019-03-25 04:42:58 Animals.S01E10.SPANiSH.1080p.WEB.h264-4FiRE
2019-03-25 04:43:17 Animals.S01E10.SPANiSH.720p.WEB.h264-4FiRE
2019-03-25 04:43:37 Animals.S01E10.SPANiSH.WEB.h264-4FiRE
2019-03-25 04:43:46 Britains.Favourite.Crisps.2019.HDTV.x264-PLUTONiUM
2019-03-25 04:46:42 Tate.Britains.Great.Art.Walks.S02E06.HDTV.x264-PLUTONiUM
2019-03-25 04:47:43 Tate.Britains.Great.Art.Walks.S02E06.720p.HDTV.x264-PLUTONiUM
2019-03-25 04:50:08 Married.to.Medicine.Los.Angeles.S01E04.Truth.Bombs.720p.HDTV.x264-CRiMSON
2019-03-25 04:50:23 Married.to.Medicine.Los.Angeles.S01E04.Truth.Bombs.HDTV.x264-CRiMSON
2019-03-25 04:56:28 Formula.E.2019.03.23.China.ePrix.Highlights.720p.HDTV.x264-GRiP
2019-03-25 05:00:35 Primal.Survivor.S04E02.Deadly.Jungle.720p.WEBRip.x264-CAFFEiNE
2019-03-25 05:02:41 Primal.Survivor.S04E02.Deadly.Jungle.WEBRip.x264-CAFFEiNE
2019-03-25 05:06:45 God.Friended.Me.S01E18.iNTERNAL.1080p.WEB.H264-MEMENTO
2019-03-25 05:07:09 Slutever.2018.S02E07.Sugar.Babies.1080p.WEB.x264-CAFFEiNE
2019-03-25 05:08:24 Slutever.2018.S02E07.Sugar.Babies.720p.WEB.x264-CAFFEiNE
2019-03-25 05:08:51 God.Friended.Me.S01E18.iNTERNAL.720p.WEB.x264-BAMBOOZLE
2019-03-25 05:09:39 God.Friended.Me.S01E18.iNTERNAL.1080p.WEB.x264-BAMBOOZLE
2019-03-25 05:09:50 Slutever.2018.S02E07.Sugar.Babies.WEB.x264-CAFFEiNE
2019-03-25 05:09:52 Good.Girls.S02E04.1080p.HDTV.x264-LucidTV
2019-03-25 05:11:33 Conan.2019.03.21.Gad.Elmaleh.720p.WEB.x264-TBS
2019-03-25 05:11:39 Madam.Secretary.S05E17.1080p.HDTV.x264-LucidTV
2019-03-25 05:11:48 Conan.2019.03.21.Gad.Elmaleh.1080p.WEB.x264-TBS
2019-03-25 05:12:35 Conan.2019.03.21.Gad.Elmaleh.WEB.x264-TBS
2019-03-25 05:15:28 Total.Bellas.S04E10.WEB.x264-TBS
2019-03-25 05:16:18 Total.Bellas.S04E10.720p.WEB.x264-TBS
2019-03-25 05:19:55 Total.Bellas.S04E10.1080p.WEB.x264-TBS
2019-03-25 05:21:22 Very.Cavallari.S02E04.720p.WEB.x264-TBS
2019-03-25 05:21:31 Very.Cavallari.S02E04.WEB.x264-TBS
2019-03-25 05:21:40 Very.Cavallari.S02E04.1080p.WEB.x264-TBS
2019-03-25 05:23:08 El_Menton_De_Fogarty-Venimos_Subidos_En_Norias-ES-CD-FLAC-2009-MAHOU
2019-03-25 05:23:50 Melocos-Imposible-ES-CDEP-FLAC-2011-MAHOU
2019-03-25 05:24:33 Melocos-Somos-ES-CD-FLAC-2009-MAHOU
2019-03-25 05:25:13 Mendel-Binaternario-ES-CD-FLAC-2013-MAHOU
2019-03-25 05:37:00 House_Of_Paper_-_Bella_Ciao_(Remix)-(065318_0000430)-WEB-2019-ZzZz
2019-03-25 05:37:52 The.Walking.Dead.S09E15.POLISH.720p.HDTV.x264-ProPLTV
2019-03-25 05:39:14 Rodzinka.pl.S14E03.POLISH.720p.HDTV.x264-ProPLTV
2019-03-25 05:40:27 BigWetButts.19.03.25.AJ.Applegate.Free.Anal.6.XXX.1080p.MP4-KTR
2019-03-25 05:41:25 Stulecie.Winnych.S01E04.POLISH.720p.HDTV.x264-ProPLTV
2019-03-25 05:41:35 TeensLikeItBig.19.03.25.Emily.Willis.Lets.Not.Tell.My.Mom.XXX.1080p.MP4-KTR
2019-03-25 05:43:16 PublicPickUps.19.03.25.Valentina.Jewels.Full.Service.XXX.1080p.MP4-KTR
2019-03-25 05:47:10 Animals.S02E01.SPANiSH.1080p.WEB.h264-4FiRE
2019-03-25 05:47:29 Animals.S02E01.SPANiSH.720p.WEB.h264-4FiRE
2019-03-25 05:47:50 Animals.S02E01.SPANiSH.WEB.h264-4FiRE
2019-03-25 05:48:09 Animals.S02E02.SPANiSH.1080p.WEB.h264-4FiRE
2019-03-25 05:48:23 The.Lighthouse.2016.BDRiP.x264-GUACAMOLE
2019-03-25 05:48:32 Animals.S02E02.SPANiSH.720p.WEB.h264-4FiRE
2019-03-25 05:48:51 Animals.S02E02.SPANiSH.WEB.h264-4FiRE
2019-03-25 05:49:12 Animals.S02E03.SPANiSH.1080p.WEB.h264-4FiRE
2019-03-25 05:49:32 Animals.S02E03.SPANiSH.720p.WEB.h264-4FiRE
2019-03-25 05:49:53 Animals.S02E03.SPANiSH.WEB.h264-4FiRE
2019-03-25 05:50:08 Diagnoza.S04E04.POLISH.720p.HDTV.x264-ProPLTV
2019-03-25 05:50:14 Animals.S02E04.SPANiSH.1080p.WEB.h264-4FiRE
2019-03-25 05:50:34 Animals.S02E04.SPANiSH.720p.WEB.h264-4FiRE
2019-03-25 05:50:54 Animals.S02E04.SPANiSH.WEB.h264-4FiRE
2019-03-25 05:51:00 Hustle.2019.S01E07.Printer.Problems.1080p.WEB.x264-CAFFEiNE
2019-03-25 05:51:14 Animals.S02E05.SPANiSH.1080p.WEB.h264-4FiRE
2019-03-25 05:51:34 Animals.S02E05.SPANiSH.720p.WEB.h264-4FiRE
2019-03-25 05:51:56 Animals.S02E05.SPANiSH.WEB.h264-4FiRE
2019-03-25 05:52:05 Fast.Layne.S01E07.720p.HDTV.x264-W4F
2019-03-25 05:52:11 The.Passage.S01E05.POLISH.720p.HDTV.x264-ProPLTV
2019-03-25 05:52:20 Fast.Layne.S01E07.HDTV.x264-W4F
2019-03-25 05:52:32 Animals.S02E06.SPANiSH.1080p.WEB.h264-4FiRE
2019-03-25 05:52:41 Animals.S02E06.SPANiSH.720p.WEB.h264-4FiRE
2019-03-25 05:52:56 Animals.S02E06.SPANiSH.WEB.h264-4FiRE
2019-03-25 05:53:17 Animals.S02E07.SPANiSH.1080p.WEB.h264-4FiRE
2019-03-25 05:53:36 Animals.S02E07.SPANiSH.720p.WEB.h264-4FiRE
2019-03-25 05:53:42 Hustle.2019.S01E07.Printer.Problems.720p.WEB.x264-CAFFEiNE
2019-03-25 05:53:57 Animals.S02E07.SPANiSH.WEB.h264-4FiRE
2019-03-25 05:54:18 Animals.S02E08.SPANiSH.1080p.WEB.h264-4FiRE
2019-03-25 05:54:37 Animals.S02E08.SPANiSH.720p.WEB.h264-4FiRE
2019-03-25 05:54:41 Madam.Secretary.S05E17.iNTERNAL.1080p.WEB.H264-AMRAP
2019-03-25 05:54:58 Animals.S02E08.SPANiSH.WEB.h264-4FiRE
2019-03-25 05:55:20 Animals.S02E09.SPANiSH.1080p.WEB.h264-4FiRE
2019-03-25 05:55:21 Hustle.2019.S01E07.Printer.Problems.WEB.x264-CAFFEiNE
2019-03-25 05:55:40 NCIS.Los.Angeles.S10E18.iNTERNAL.1080p.WEB.H264-AMRAP
2019-03-25 05:55:41 Animals.S02E09.SPANiSH.720p.WEB.h264-4FiRE
2019-03-25 05:55:59 Animals.S02E09.SPANiSH.WEB.h264-4FiRE
2019-03-25 05:56:20 Animals.S02E10.SPANiSH.1080p.WEB.h264-4FiRE
2019-03-25 05:56:38 NCIS.Los.Angeles.S10E18.iNTERNAL.720p.WEB.H264-AMRAP
2019-03-25 05:56:44 Animals.S02E10.SPANiSH.720p.WEB.h264-4FiRE
2019-03-25 05:57:00 Animals.S02E10.SPANiSH.WEB.h264-4FiRE
2019-03-25 05:57:40 Madam.Secretary.S05E17.iNTERNAL.720p.WEB.H264-AMRAP
2019-03-25 06:01:15 Strike.Back.S07E05.POLISH.720p.HDTV.x264-ProPLTV
2019-03-25 06:01:54 DigitalPlayground.19.03.25.Sarah.Banks.Golden.Twerk.XXX.1080p.MP4-KTR
2019-03-25 06:02:59 PornMegaLoad.19.03.24.Eva.Notty.Fast.Bangs.XXX.1080p.MP4-KTR
2019-03-25 06:04:09 ThirdMovies.19.03.25.Vienna.Rose.Pounding.A.Blonde.Dolls.Pussy.XXX.1080p.MP4-KTR
2019-03-25 06:04:17 Seeking.Sister.Wife.S02E09.720p.WEB.x264-TBS
2019-03-25 06:04:22 Seeking.Sister.Wife.S02E09.1080p.WEB.x264-TBS
2019-03-25 06:04:36 Seeking.Sister.Wife.S02E09.WEB.x264-TBS
2019-03-25 06:05:47 NCIS.Los.Angeles.S10E18.iNTERNAL.720p.WEB.x264-BAMBOOZLE
2019-03-25 06:05:59 NCIS.Los.Angeles.S10E18.iNTERNAL.1080p.WEB.x264-BAMBOOZLE
2019-03-25 06:08:00 Supergirl.S04E16.iNTERNAL.720p.WEB.h264-BAMBOOZLE
2019-03-25 06:08:22 Supergirl.S04E16.iNTERNAL.1080p.WEB.h264-BAMBOOZLE
2019-03-25 06:12:55 Charmed.2018.S01E16.iNTERNAL.720p.WEB.h264-BAMBOOZLE
2019-03-25 06:13:00 Charmed.2018.S01E16.iNTERNAL.1080p.WEB.h264-BAMBOOZLE
2019-03-25 06:20:01 1000Facials.19.03.25.Alana.Cruise.Gray.Mopper.XXX.1080p.MP4-KTR
2019-03-25 06:21:34 AssParade.19.03.25.Brandi.Bae.XXX.1080p.MP4-KTR
2019-03-25 06:24:07 AssParade.19.03.25.Brandi.Bae.XXX.2160p.MP4-KTR
2019-03-25 06:26:11 VA_-_Dance_Floor_Anthems_Miami-(CAT_288624)-WEB-2019-ZzZz
2019-03-25 06:27:49 AllGirlMassage.19.03.25.Sovereign.Syre.And.Aidra.Fox.The.Female.Form.XXX.1080p.MP4-KTR
2019-03-25 06:29:01 EuroGirlsOnGirls.19.03.25.Vicky.Love.Inna.Innaki.And.Elena.Hatzi.Three.Way.Pussy.Play.XXX.1080p.MP4-KTR
2019-03-25 06:29:58 SweetheartVideo.19.03.25.Verronica.Kirei.And.Samantha.Hayes.The.Party.Girls.XXX.1080p.MP4-KTR
2019-03-25 06:31:57 SweetheartVideo.19.03.25.Verronica.Kirei.And.Samantha.Hayes.The.Party.Girls.XXX.2160p.MP4-KTR
2019-03-25 06:36:15 I.Danmark.Er.Jeg.Foedt.E04.DANiSH.720p.WEB.h264-DANES
2019-03-25 06:41:20 Innafor.S03E06.NORWEGiAN.720p.WEB.X264-HENRETTELSE
2019-03-25 06:42:17 Robinson.S18E07.SWEDiSH.720p.WEB.X264-EXECUTION
2019-03-25 06:43:15 Robinson.S18E07.SWEDiSH.1080p.WEB.X264-EXECUTION
2019-03-25 06:44:02 DJ_Nano_Vs_Bigtopo_And_Omar_Diaz-You_(A_Summer_Story_2019_Official_Anthem)-WEB-2019-eMF
2019-03-25 06:45:19 WTA.Miami.Open.2019.Round.3.Ajla.Tomljanovic.Vs.Anett.Kontaveit.720p.WEB.h264-PYRAMiD
2019-03-25 06:50:26 WTA.Miami.Open.2019.Round.3.Bianca.Andreescu.Vs.Angelique.Kerber.720p.WEB.h264-PYRAMiD
2019-03-25 06:51:39 CzechCasting.19.03.25.Karolina.0036.XXX.1080p.MP4-KTR
2019-03-25 06:52:23 Vem.Bor.Har.S05E01.SWEDiSH.720p.WEB.H264-EXECUTION
2019-03-25 06:52:47 DorcelClub.19.03.25.Aysha.And.Lovita.Fate.First.Threesome.For.Young.Aysha.XXX.1080p.MP4-KTR
2019-03-25 06:53:21 Vetenskapens.Varld.S30E12.SWEDiSH.720p.WEB.H264-EXECUTION
2019-03-25 06:53:30 The.Case.Against.Adnan.Syed.S01E03.720p.WEB.H264-AMRAP
2019-03-25 06:54:32 The.Case.Against.Adnan.Syed.S01E03.1080p.WEB.H264-AMRAP
2019-03-25 06:55:02 Bang.RealTeens.19.03.25.Kali.Roses.XXX.1080p.MP4-KTR
2019-03-25 06:55:28 WTA.Miami.Open.2019.Round.3.Elise.Mertens.Vs.Marketa.Vondrousova.720p.WEB.h264-PYRAMiD
2019-03-25 06:56:27 CzechCasting.19.03.25.Karolina.0036.XXX.2160p.MP4-KTR
2019-03-25 06:59:09 Animals.S03E01.SPANiSH.1080p.WEB.h264-4FiRE
2019-03-25 06:59:11 DorcelClub.19.03.25.Aysha.And.Lovita.Fate.First.Threesome.For.Young.Aysha.XXX.2160p.MP4-KTR
2019-03-25 06:59:32 Animals.S03E01.SPANiSH.720p.WEB.h264-4FiRE
2019-03-25 06:59:50 Animals.S03E01.SPANiSH.WEB.h264-4FiRE
2019-03-25 07:00:11 Animals.S03E02.SPANiSH.1080p.WEB.h264-4FiRE
2019-03-25 07:00:30 WTA.Miami.Open.2019.Round.3.Karolina.Pliskova.Vs.Alize.Cornet.720p.WEB.h264-PYRAMiD
2019-03-25 07:00:31 Animals.S03E02.SPANiSH.720p.WEB.h264-4FiRE
2019-03-25 07:00:51 Animals.S03E02.SPANiSH.WEB.h264-4FiRE
2019-03-25 07:01:12 Animals.S03E03.SPANiSH.1080p.WEB.h264-4FiRE
2019-03-25 07:01:32 Animals.S03E03.SPANiSH.720p.WEB.h264-4FiRE
2019-03-25 07:01:52 Animals.S03E03.SPANiSH.WEB.h264-4FiRE
2019-03-25 07:02:14 Animals.S03E04.SPANiSH.1080p.WEB.h264-4FiRE
2019-03-25 07:02:33 Animals.S03E04.SPANiSH.720p.WEB.h264-4FiRE
2019-03-25 07:02:54 Animals.S03E04.SPANiSH.WEB.h264-4FiRE
2019-03-25 07:03:16 Animals.S03E05.SPANiSH.1080p.WEB.h264-4FiRE
2019-03-25 07:03:35 Animals.S03E05.SPANiSH.720p.WEB.h264-4FiRE
2019-03-25 07:03:55 Animals.S03E05.SPANiSH.WEB.h264-4FiRE
2019-03-25 07:04:12 The.Lighthouse.2016.720p.BluRay.x264-GUACAMOLE
2019-03-25 07:04:18 Animals.S03E06.SPANiSH.1080p.WEB.h264-4FiRE
2019-03-25 07:04:37 Animals.S03E06.SPANiSH.720p.WEB.h264-4FiRE
2019-03-25 07:04:46 CzechSexCasting.19.03.25.Sarah.Star.CZECH.XXX.1080p.MP4-KTR
2019-03-25 07:04:59 Animals.S03E06.SPANiSH.WEB.h264-4FiRE
2019-03-25 07:05:17 Animals.S03E07.SPANiSH.1080p.WEB.h264-4FiRE
2019-03-25 07:05:32 WTA.Miami.Open.2019.Round.3.Tatjana.Maria.Vs.Sloane.Stephens.720p.WEB.h264-PYRAMiD
2019-03-25 07:05:39 Animals.S03E07.SPANiSH.720p.WEB.h264-4FiRE
2019-03-25 07:05:58 Animals.S03E07.SPANiSH.WEB.h264-4FiRE
2019-03-25 07:06:21 Animals.S03E08.SPANiSH.1080p.WEB.h264-4FiRE
2019-03-25 07:06:39 Animals.S03E08.SPANiSH.720p.WEB.h264-4FiRE
2019-03-25 07:06:58 Animals.S03E08.SPANiSH.WEB.h264-4FiRE
2019-03-25 07:07:20 Animals.S03E09.SPANiSH.1080p.WEB.h264-4FiRE
2019-03-25 07:07:39 Animals.S03E09.SPANiSH.720p.WEB.h264-4FiRE
2019-03-25 07:08:00 Animals.S03E09.SPANiSH.WEB.h264-4FiRE
2019-03-25 07:08:20 Animals.S03E10.SPANiSH.1080p.WEB.h264-4FiRE
2019-03-25 07:08:41 Animals.S03E10.SPANiSH.720p.WEB.h264-4FiRE
2019-03-25 07:09:00 Animals.S03E10.SPANiSH.WEB.h264-4FiRE
2019-03-25 07:09:52 BlackValleyGirls.19.03.25.Alexis.Tae.Dick.Tipping.The.Driver.XXX.1080p.MP4-KTR
2019-03-25 07:10:37 WTA.Miami.Open.2019.Round.3.Yafan.Wang.Vs.Danielle.Collins.720p.WEB.h264-PYRAMiD
2019-03-25 07:12:14 Il.Corriere.Della.Sera.03.25.2019.iTALiAN.RETAiL.eBook-DiVER
2019-03-25 07:12:32 TeensDoPorn.19.03.25.Gianna.Dior.Nothing.But.Teen.Sex.And.Hunting.XXX.1080p.MP4-KTR
2019-03-25 07:13:02 A.La.Caza.De.Bin.Laden.2013.SPANiSH.DOC.1080p.WEB.h264-4FiRE
2019-03-25 07:14:39 CzechSexCasting.19.03.25.Sarah.Star.CZECH.XXX.2160p.MP4-KTR
2019-03-25 07:15:37 WTA.Miami.Open.2019.Round.3.Yulia.Putintseva.Vs.Anastasija.Sevastova.720p.WEB.h264-PYRAMiD
2019-03-25 07:17:01 Bang.RealTeens.19.03.25.Kali.Roses.XXX.2160p.MP4-KTR
2019-03-25 07:19:23 The.Lighthouse.2016.1080p.BluRay.x264-GUACAMOLE
2019-03-25 07:21:09 Futbol.Club.Maradona.2019.SPANiSH.DOC.1080p.HDTV.x264-4FiRE
2019-03-25 07:21:30 Futbol.Club.Maradona.2019.SPANiSH.DOC.720p.HDTV.x264-4FiRE
2019-03-25 07:21:51 Futbol.Club.Maradona.2019.SPANiSH.DOC.HDTV.x264-4FiRE
2019-03-25 07:23:38 Madam.Secretary.S05E17.iNTERNAL.720p.WEB.x264-BAMBOOZLE
2019-03-25 07:24:17 Madam.Secretary.S05E17.iNTERNAL.1080p.WEB.x264-BAMBOOZLE
2019-03-25 07:27:19 PlayboyPlus.19.03.25.Hailey.Afton.Call.On.Me.XXX.1080p.MP4-KTR
2019-03-25 07:29:16 NewSensations.19.03.25.Miranda.Miller.XXX.1080p.MP4-KTR
2019-03-25 07:31:30 NewSensations.19.03.25.Miranda.Miller.XXX.2160p.MP4-KTR
2019-03-25 07:35:04 Ancestor-Zero_Tolerance_EP-WEB-2019-WAV
2019-03-25 07:35:22 Edit_Select-EDITSELECT044V-WEB-2019-WAV
2019-03-25 07:35:39 Keikari-Karsia_EP-WEB-2019-WAV
2019-03-25 07:36:04 VA-Perception-WEB-2019-WAV
2019-03-25 07:42:18 La.Gazzetta.Dello.Sport.03.25.2019.iTALiAN.RETAiL.eBook-DiVER
2019-03-25 07:43:20 The.Apprentice.S09E09.1080p.HDTV.H264-GIMINI
2019-03-25 07:43:33 Formula.E.2019.03.23.China.ePrix.Highlights.1080p.HDTV.x264-GRiP
2019-03-25 07:44:16 ATKGirlfriends.19.03.25.Chloe.Temple.XXX.1080p.MP4-KTR
2019-03-25 07:44:23 The.Apprentice.S09E10.1080p.HDTV.H264-GIMINI
2019-03-25 07:45:57 Tate.Britains.Great.Art.Walks.S02E06.1080p.HDTV.x264-PLUTONiUM
2019-03-25 07:46:07 ATKGirlfriends.19.03.25.Chloe.Temple.XXX.2160p.MP4-KTR
2019-03-25 07:48:19 ClubSeventeen.19.03.25.Nata.Ocean.Hardcore.XXX.1080p.MP4-KTR
2019-03-25 07:50:12 The.Only.Way.Is.Essex.S24E02.1080p.HDTV.x264-PLUTONiUM
2019-03-25 07:51:14 The.Only.Way.Is.Essex.S24E02.720p.HDTV.x264-PLUTONiUM
2019-03-25 07:52:15 The.Only.Way.Is.Essex.S24E02.HDTV.x264-PLUTONiUM
2019-03-25 08:02:02 Le.Iene.2019.03.24.iTALiAN.WEB.h264-ENCRyPTED
2019-03-25 08:02:53 KarupsHA.19.03.25.Serena.Skye.Just.Cant.Wait.XXX.1080p.MP4-KTR
2019-03-25 08:04:00 KarupsPC.19.03.23.Lexi.Dona.Cumfy.Chair.XXX.1080p.MP4-KTR
2019-03-25 08:04:49 Primal.Survivor.S04E01.Volcano.Island.1080p.WEB.h264-TBS
2019-03-25 08:05:44 NubileFilms.19.03.25.Athena.Faris.Caught.Up.In.You.XXX.1080p.MP4-KTR
2019-03-25 08:06:39 Primal.Survivor.S04E02.Deadly.Jungle.1080p.WEB.h264-TBS
2019-03-25 08:07:05 Nubiles-Porn.19.03.25.Kelsey.Kage.The.Best.Kind.Of.Bad.XXX.1080p.MP4-KTR
2019-03-25 08:08:04 Nubiles.19.03.25.Lana.Roy.Watch.Me.Cum.XXX.1080p.MP4-KTR
2019-03-25 08:09:02 Wicked.Tuna.S08E03.Wreck.It.Ralph.1080p.WEB.h264-TBS
2019-03-25 08:09:40 LVNDSCAPE_feat_Jae_Hall_-_Home-(190295458072)-SINGLE-WEB-2019-ZzZz
2019-03-25 08:10:08 Dannic_-_Tell_Me_(If_You_Really_Love_Me)-(190295456832)-SINGLE-WEB-2019-ZzZz
2019-03-25 08:13:40 Caius_feat_Neigh_-_Your_Love-(190295458140)-SINGLE-WEB-2019-ZzZz
2019-03-25 08:14:14 SleazyStepdad.19.03.25.Danni.Rivers.XXX.1080p.MP4-KTR
2019-03-25 08:16:14 Toby_Green_-_Work_It-(MF330)-SINGLE-WEB-2019-ZzZz
2019-03-25 08:16:45 KarupsHA.19.03.25.Serena.Skye.Just.Cant.Wait.XXX.2160p.MP4-KTR
2019-03-25 08:18:34 Dada_Life_-_No_More_54-(190295456627)-SINGLE-WEB-2019-ZzZz
2019-03-25 08:18:40 Tiny.House.Nation.S05E01.1080p.WEB.h264-TBS
2019-03-25 08:18:44 KarupsPC.19.03.23.Lexi.Dona.Cumfy.Chair.XXX.2160p.MP4-KTR
2019-03-25 08:19:57 Tiny.House.Nation.S05E02.1080p.WEB.h264-TBS
2019-03-25 08:21:04 SleazyStepdad.19.03.25.Danni.Rivers.XXX.2160p.MP4-KTR
2019-03-25 08:25:48 Gigantes.S02E01.SPANiSH.1080p.HDTV.x264-FERiCE
2019-03-25 08:25:51 Arrow.S07E15.FRENCH.720p.WEB.x264-CARAPiLS
2019-03-25 08:26:53 Black.Lightning.S02E16.FRENCH.720p.WEB.x264-CARAPiLS
2019-03-25 08:27:11 Gigantes.S02E01.SPANiSH.720p.HDTV.x264-FERiCE
2019-03-25 08:27:33 American.Gods.S02E03.GERMAN.DL.720p.WEB.H264-FENDT
2019-03-25 08:27:55 Gigantes.S02E01.SPANiSH.HDTV.x264-FERiCE
2019-03-25 08:28:06 Dynasty.2017.S02E15.FRENCH.720p.WEB.x264-CARAPiLS
2019-03-25 08:28:15 CherryPimps.19.03.25.Gianna.Dior.Come.A.Little.Closer.For.Some.Hot.Fun.XXX.1080p.MP4-KTR
2019-03-25 08:29:04 American.Gods.S02E03.GERMAN.DL.1080p.WEB.H264-FENDT
2019-03-25 08:29:15 Arrow.S07E15.MULTi.1080p.WEB.x264-CARAPiLS
2019-03-25 08:29:44 CherryPimps.19.03.25.Gianna.Dior.Come.A.Little.Closer.For.Some.Hot.Fun.XXX.2160p.MP4-KTR
2019-03-25 08:29:58 Vanity.Fair.S01E06.GERMAN.1080p.WEB.H264-FENDT
2019-03-25 08:30:18 Black.Lightning.S02E16.MULTi.1080p.WEB.x264-CARAPiLS
2019-03-25 08:30:40 Vanity.Fair.S01E06.GERMAN.720p.WEB.H264-FENDT
2019-03-25 08:31:11 Spizoo.19.03.25.Daisy.Stone.And.Penny.Pax.Pennys.Obsession.Of.Daisy.XXX.1080p.MP4-KTR
2019-03-25 08:31:23 Dynasty.2017.S02E15.MULTi.1080p.WEB.x264-CARAPiLS
2019-03-25 08:32:55 Spizoo.19.03.25.Daisy.Stone.And.Penny.Pax.Pennys.Obsession.Of.Daisy.XXX.2160p.MP4-KTR
2019-03-25 08:36:40 WildOnCam.19.03.25.Avery.Black.And.Jillian.Janson.Lesbian.XXX.1080p.MP4-KTR
2019-03-25 08:37:15 The.Walking.Dead.S09E15.iNTERNAL.720p.WEB.H264-AMRAP
2019-03-25 08:38:14 The.Walking.Dead.S09E15.iNTERNAL.1080p.WEB.H264-AMRAP
2019-03-25 08:39:52 AFLW.2019.Preliminary.Final.2.Crows.vs.Cats.HDTV.x264-WiNNiNG
2019-03-25 08:41:08 ClubSeventeen.19.03.25.Nata.Ocean.Hardcore.XXX.2160p.MP4-KTR
2019-03-25 08:41:14 AFLW.2019.Preliminary.Final.2.Crows.vs.Cats.720p.HDTV.x264-WiNNiNG
2019-03-25 08:41:54 Murder.Comes.to.Town.S02E09.Lord.of.the.Rockies.INTERNAL.WEB.x264-UNDERBELLY
2019-03-25 08:42:31 AFLW.2019.Preliminary.Final.2.Crows.vs.Cats.1080p.HDTV.x264-WiNNiNG
2019-03-25 08:42:56 Murder.Comes.to.Town.S02E09.Lord.of.the.Rockies.INTERNAL.720p.WEB.x264-UNDERBELLY
2019-03-25 08:43:58 Murder.Comes.to.Town.S02E09.Lord.of.the.Rockies.1080p.WEB.x264-UNDERBELLY
2019-03-25 08:49:29 Lost.Treasures.of.Egypt.S01E01.1080p.WEB.H264-EDHD
2019-03-25 08:50:31 Lost.Treasures.of.Egypt.S01E02.1080p.WEB.H264-EDHD
2019-03-25 08:50:39 AFL.2019.Round.1.Dogs.vs.Swans.HDTV.x264-WiNNiNG
2019-03-25 08:51:29 Lost.Treasures.of.Egypt.S01E03.1080p.WEB.H264-EDHD
2019-03-25 08:51:50 AFL.2019.Round.1.Dogs.vs.Swans.720p.HDTV.x264-WiNNiNG
2019-03-25 08:52:29 Lost.Treasures.of.Egypt.S01E04.1080p.WEB.H264-EDHD
2019-03-25 08:52:47 Melofellaz_feat_Heidi_-_Shades_Of_The_Night_(Raindropz_Remix_Edit)-(NUON_064)-SINGLE-WEB-2019-ZzZz
2019-03-25 08:53:28 Lost.Treasures.of.Egypt.S01E04.720p.WEB.H264-EDHD
2019-03-25 08:54:30 Lost.Treasures.of.Egypt.S01E05.1080p.WEB.H264-EDHD
2019-03-25 08:55:29 Lost.Treasures.of.Egypt.S01E05.720p.WEB.H264-EDHD
2019-03-25 08:56:48 AllOver30.19.03.25.Phoebe.Waters.Ladies.With.Toys.XXX.1080p.MP4-KTR
2019-03-25 08:57:40 Tattoo.Fixers.on.Holiday.S02E06.WEB.H264-GIMINI
2019-03-25 08:58:03 AllOver30.19.03.25.Velvet.Skye.Mature.Pleasure.XXX.1080p.MP4-KTR
2019-03-25 08:58:42 Tattoo.Fixers.on.Holiday.S02E06.720p.WEB.H264-GIMINI
2019-03-25 08:59:04 OldYoungLesbianLove.19.03.25.Montse.Swinger.And.Ashley.Ocean.Loving.Step-Mother.XXX.1080p.MP4-KTR
2019-03-25 09:00:19 PlumperPass.19.03.25.Sofia.Rose.XXX.1080p.MP4-KTR
2019-03-25 09:00:26 Sweep-Two_Players-CD-FLAC-2003-AMOK
2019-03-25 09:01:39 VIPissy.19.03.25.Jenifer.Jane.And.Julia.Parker.Sharing.Streams.XXX.1080p.MP4-KTR
2019-03-25 09:01:45 Good.Girls.S02E04.720p.WEB.H264-AMCON
2019-03-25 09:02:29 Good.Girls.S02E04.iNTERNAL.1080p.WEB.H264-AMRAP
2019-03-25 09:03:07 Art_Tawanghar_feat_Elise_Lebec_-_We_Are_Infected_(Extended_Play)-(AWD_395513)-SINGLE-WEB-2019-ZzZz
2019-03-25 09:04:01 AssTraffic.19.03.25.Marilyn.Christal.XXX.1080p.MP4-KTR
2019-03-25 09:04:55 UFC.Fight.Night.148.FRENCH.1080p.HDTV.x264-TiTUS
2019-03-25 09:08:44 MetArt.com_19.03.24.Mila.Azul.Coffee.Boost.XXX.IMAGESET-FuGLi
2019-03-25 09:09:11 AllOver30.19.03.25.Phoebe.Waters.Ladies.With.Toys.XXX.2160p.MP4-KTR
2019-03-25 09:10:34 AllOver30.19.03.25.Velvet.Skye.Mature.Pleasure.XXX.2160p.MP4-KTR
2019-03-25 09:10:53 WTA.Miami.Open.2019.Round.3.Daria.Kasatkina.Vs.Venus.Williams.720p.WEB.h264-PYRAMiD
2019-03-25 09:13:15 OldYoungLesbianLove.19.03.25.Montse.Swinger.And.Ashley.Ocean.Loving.Step-Mother.XXX.2160p.MP4-KTR
2019-03-25 09:14:01 Cuarto.Milenio.S14E30.SPANiSH.720p.WEB.x264-FCC
2019-03-25 09:14:10 Cuarto.Milenio.S14E30.SPANiSH.WEB.x264-FCC
2019-03-25 09:15:54 WTA.Miami.Open.2019.Round.3.Polona.Hercog.Vs.Simona.Halep.720p.WEB.h264-PYRAMiD
2019-03-25 09:15:59 Alphaled-Classic_Sound_(Platinum_Edition)-(CLV879)-WEB-2019-NDE
2019-03-25 09:17:14 VIPissy.19.03.25.Jenifer.Jane.And.Julia.Parker.Sharing.Streams.XXX.2160p.MP4-KTR
2019-03-25 09:17:35 Andy_Marea-With_Out_You-(4D083)-WEB-2019-NDE
2019-03-25 09:18:48 MetArt.com_19.03.25.Casey.Trench.XXX.IMAGESET-FuGLi
2019-03-25 09:20:20 AnGy_KoRe-Der_Rauch-(735119035789)-WEB-2019-NDE
2019-03-25 09:20:37 GirlsOutWest.19.03.24.Amber.Rose.And.Tash.Rinsed.XXX.1080p.MP4-TRASHBIN
2019-03-25 09:20:58 MetArt.com_19.03.25.Dita.V.Fashion.Student.XXX.IMAGESET-FuGLi
2019-03-25 09:21:54 GirlsOutWest.19.03.25.Rubi.Valentine.Wake.Up.Call.XXX.1080p.MP4-TRASHBIN
2019-03-25 09:22:18 Brog-Wonder-(36829)-WEB-2019-NDE
2019-03-25 09:23:02 KarupsHA.19.03.24.Adrianna.Luna.And.Hope.Howell.XXX.1080p.MP4-TRASHBIN
2019-03-25 09:23:40 Dave_Clarke_-_White_Noise_690-SAT-03-24-2019-TALiON
2019-03-25 09:23:55 Brown_Cuts_Neighbors-Horseback_Solids-(WC24014)-WEB-2014-NDE
2019-03-25 09:23:59 KarupsOW.19.03.24.Amber.Jayne.XXX.1080p.MP4-TRASHBIN
2019-03-25 09:25:09 KarupsOW.19.03.25.Mahina.Zaltana.XXX.1080p.MP4-TRASHBIN
2019-03-25 09:25:24 Crycell-Prismatic-(301652308835)-WEB-2019-NDE
2019-03-25 09:27:03 Edgework-Sum_Of_The_Whole-(MHTCH006)-WEB-2019-NDE
2019-03-25 09:28:09 Mike_Dehnert-MD27-(MD27)-WEB-2019-ENTANGLE
2019-03-25 09:28:11 GirlsOutWest.19.03.24.Amber.Rose.And.Tash.Rinsed.XXX.2160p.MP4-TRASHBIN
2019-03-25 09:28:28 Emalkay-Reworked-(EMALKAY004)-WEB-2019-NDE
2019-03-25 09:28:54 Shaven-Racing_Thoughts-(SHVN05)-WEB-2019-ENTANGLE
2019-03-25 09:29:23 Asia_Gang_-_Youre_The_One_That_I_Want-WEB-1998-iDC
2019-03-25 09:29:40 GirlsOutWest.19.03.25.Rubi.Valentine.Wake.Up.Call.XXX.2160p.MP4-TRASHBIN
2019-03-25 09:30:27 Evidence-Receiver-(WC24044)-WEB-2019-NDE
2019-03-25 09:31:37 Machinegewehr-Kurayami-(EE025)-WEB-2019-ENTANGLE
2019-03-25 09:31:46 Tevo_Howard-Right_Where_You_Want_It-SINGLE-(TTHRDR035)-WEB-2019-ENTANGLE
2019-03-25 09:31:57 The_Pulse_Projects-Soon_To_Be-EP-(PTRNV005)-WEB-2018-ENTANGLE
2019-03-25 09:32:27 Cafe.De.Mol.S02E03.FLEMISH.WEB.x264-MERCATOR
2019-03-25 09:32:28 JSMA-JSMA-(NR077)-WEB-2019-NDE
2019-03-25 09:33:43 Fouk-Truffles-EP-(HEIST037)-WEB-2019-ENTANGLE
2019-03-25 09:33:55 Mystica_Tribe-DJ_Sotofetts_Dub_Ash_Mixes-(SOLAR11)-WEB-2019-ENTANGLE
2019-03-25 09:34:04 Maydo_Llokko-Psychadelic_Way-(LMLTRC012)-WEB-2019-NDE
2019-03-25 09:34:35 Det.Umulige.Landet.S01E03.NORWEGiAN.720p.HDTV.x264-NORPiLT
2019-03-25 09:35:58 Nacim_Ladj-Deep_Mind_LP-(NASIMUS199)-WEB-2019-NDE
2019-03-25 09:36:01 Control.Pedro.S03E05.FLEMISH.WEB.x264-MERCATOR
2019-03-25 09:36:29 Race.Across.The.World.S01E04.1080p.HDTV.x264-PLUTONiUM
2019-03-25 09:37:09 Dagelijkse.Kunst.S02E02.Soe.Nsuki.FLEMISH.WEB.H264-MERCATOR
2019-03-25 09:37:25 Australian.Crime.Stories.S03E04.WEB.H264-FLX
2019-03-25 09:38:15 De.Mol.S07E03.FLEMISH.WEB.x264-MERCATOR
2019-03-25 09:38:22 Australian.Crime.Stories.S03E04.720p.WEB.H264-FLX
2019-03-25 09:38:44 Credit_00-Tilt-(PNKMN24)-WEB-2019-ENTiTLED
2019-03-25 09:39:27 NaeTek-Autonoesis_(_The_Album_)-(SUPDUB132)-WEB-2019-NDE
2019-03-25 09:40:46 Novastation-Sideheart-(CLV878)-WEB-2019-NDE
2019-03-25 09:41:09 Down.The.Road.S01E01.FLEMISH.WEB.H264-MERCATOR
2019-03-25 09:42:09 EvilAngel.Up.My.Booty.3.XXX.720p.MP4-KTR
2019-03-25 09:42:16 Rayan_Myers-Palette_Of_Feels-(NM144)-WEB-2019-NDE
2019-03-25 09:42:21 Terroristas.Dentro.De.Nuestras.Fronteras.2016.SPANiSH.DOC.1080p.WEB.h264-4FiRE
2019-03-25 09:42:30 Down.The.Road.S01E02.FLEMISH.REAL.WEB.H264-MERCATOR
2019-03-25 09:42:43 Terroristas.Dentro.De.Nuestras.Fronteras.2016.SPANiSH.DOC.720p.WEB.h264-4FiRE
2019-03-25 09:43:04 Terroristas.Dentro.De.Nuestras.Fronteras.2016.SPANiSH.DOC.WEB.h264-4FiRE
2019-03-25 09:43:30 The.Inventor.Out.For.Blood.In.Silicon.Valley.2019.SPANiSH.DOC.1080p.WEB.h264-4FiRE
2019-03-25 09:43:54 The.Inventor.Out.For.Blood.In.Silicon.Valley.2019.SPANiSH.DOC.720p.WEB.h264-4FiRE
2019-03-25 09:44:03 Sounds_From_The_Ground-Binary-(UP0017)-WEB-2019-NDE
2019-03-25 09:44:26 The.Inventor.Out.For.Blood.In.Silicon.Valley.2019.SPANiSH.DOC.WEB.h264-4FiRE
2019-03-25 09:44:44 A_Swayze_and_The_Ghosts-Suddenly-SINGLE-WEB-2018-ENTiTLED
2019-03-25 09:44:47 Una.Chica.En.El.Rio.2016.SPANiSH.DOC.1080p.WEB.h264-4FiRE
2019-03-25 09:45:06 Una.Chica.En.El.Rio.2016.SPANiSH.DOC.720p.WEB.h264-4FiRE
2019-03-25 09:45:14 Sun_Runners_feat._Dreamcast-Always_Be_Your_G-SINGLE-WEB-2019-ENTiTLED
2019-03-25 09:45:29 Una.Chica.En.El.Rio.2016.SPANiSH.DOC.WEB.h264-4FiRE
2019-03-25 09:45:47 Urgencias.En.Bagdad.2006.SPANiSH.DOC.1080p.WEB.h264-4FiRE
2019-03-25 09:45:55 EvilAngel.Up.My.Booty.3.XXX.1080p.MP4-KTR
2019-03-25 09:46:10 Urgencias.En.Bagdad.2006.SPANiSH.DOC.720p.WEB.h264-4FiRE
2019-03-25 09:46:17 TasZ-Us_And_Them-(SSDIGI045)-WEB-2019-NDE
2019-03-25 09:46:31 Urgencias.En.Bagdad.2006.SPANiSH.DOC.WEB.h264-4FiRE
2019-03-25 09:46:54 Wartorn.1861-2010.2010.SPANiSH.DOC.1080p.WEB.h264-4FiRE
2019-03-25 09:46:59 Fabo-Where_I_Stand_(Remastered)-(PPV052)-WEB-2019-ENTANGLE
2019-03-25 09:47:15 Wartorn.1861-2010.2010.SPANiSH.DOC.720p.WEB.h264-4FiRE
2019-03-25 09:47:35 Wartorn.1861-2010.2010.SPANiSH.DOC.WEB.h264-4FiRE
2019-03-25 09:47:57 Techno_Mama-Melodious_Underground-(HB0276)-WEB-2019-NDE
2019-03-25 09:49:39 The_Freakazoids-In_Freaks_We_Trust-(THRUSTLP002)-WEB-2019-NDE
2019-03-25 09:50:36 Holmar__Bluetech--The_Mothership_EP-(GPM503)-WEB-2019-dh
2019-03-25 09:51:43 THE_VINSEES-Travel_And_See-(4061798228379)-WEB-2019-NDE
2019-03-25 09:52:07 The.Act.S01E01.INTERNAL.1080p.WEB.H264-DEFLATE
2019-03-25 09:52:16 DJ_Violette--Now_I_Know-(SLT_155)-WEB-2019-dh
2019-03-25 09:53:06 HornyHostel.19.03.25.Angel.Wicky.XXX.1080p.MP4-KTR
2019-03-25 09:53:22 The_Cranberries-Wake_Me_When_Its_Over_(Edit)-SINGLE-WEB-2019-ENTiTLED
2019-03-25 09:53:25 Uncle-R-Organic_Sounds-(DCR179)-WEB-2019-NDE
2019-03-25 09:53:42 Alex_Lo_Faro--Why_Dont_You-(DPLMSN008)-WEB-2019-dh
2019-03-25 09:55:06 VA-Killer_Heart-(MATERIAL154)-WEB-2019-ENTANGLE
2019-03-25 09:55:13 Moodshifter--Sassafras-(KMNTY034)-WEB-2019-dh
2019-03-25 09:55:22 VA-Kids_Dogs_Cooking_Zombies-(VIR03D)-WEB-2019-NDE
2019-03-25 09:56:22 Moodshifter--The_Higher_Spirit-(KMNTY038)-WEB-2019-dh
2019-03-25 09:57:26 Andre_Salmon-La_Interupcon-WEB-2019-ENTANGLE
2019-03-25 09:57:36 Tobi_Kramer-The_Tourist_(Remixes)-(GSR367)-WEB-2018-ENTANGLE
2019-03-25 09:57:44 Chalex--Bob_Bass-(FRUCHT165)-WEB-2019-dh
2019-03-25 10:01:17 Good.Girls.S02E04.WEB.h264-TBS
2019-03-25 10:02:31 Good.Girls.S02E04.iNTERNAL.1080p.WEB.h264-BAMBOOZLE
2019-03-25 10:02:46 World.of.Dance.S03E06.WEB.h264-TBS
2019-03-25 10:03:06 World.of.Dance.S03E06.720p.WEB.h264-TBS
2019-03-25 10:03:12 American.Idol.S17E06.WEB.h264-TBS
2019-03-25 10:03:33 World.of.Dance.S03E06.1080p.WEB.h264-TBS
2019-03-25 10:03:36 American.Idol.S17E06.720p.WEB.h264-TBS
2019-03-25 10:04:09 American.Idol.S17E06.1080p.WEB.h264-TBS
2019-03-25 10:05:23 Shark.Tank.S10E17.WEB.h264-TBS
2019-03-25 10:05:30 Shark.Tank.S10E17.720p.WEB.h264-TBS
2019-03-25 10:05:57 Nubiles.net_19.03.25.Poppy.Pleasure.Teen.Dream.XXX.IMAGESET-FuGLi
2019-03-25 10:07:58 Nubiles.net_19.03.25.Amelinda.Skin.Tight.XXX.IMAGESET-FuGLi
2019-03-25 10:09:43 Die.Schatzsucher.Goldrausch.in.Alaska.S09E19.Das.Gold.liegt.auf.der.Strasse.GERMAN.720p.DOKU.WEB.h264-CDD
2019-03-25 10:10:35 Goldrausch.White.Water.S02E04.Zum.greifen.nah.GERMAN.720p.DOKU.WEB.h264-CDD
2019-03-25 10:11:11 Andres_Power_and_Outcode-Orinoco-SINGLE-(ACR048)-WEB-2019-ENTANGLE
2019-03-25 10:11:43 FDF-Sense_Of_The_Melody-SINGLE-(HTB030)-WEB-2019-ENTANGLE
2019-03-25 10:12:12 Down.The.Road.S01E03.FLEMISH.WEB.H264-MERCATOR
2019-03-25 10:12:14 Marco_Effe-Tijuanas_Road-(COSMR013)-WEB-2019-ENTANGLE
2019-03-25 10:12:48 VA-Miami_2019_Anthems_Tech_House-(LWMA201903)-WEB-2019-ENTANGLE
2019-03-25 10:13:07 Die.Schatzsucher.Goldrausch.in.Alaska.S09E19.Das.Gold.liegt.auf.der.Strasse.GERMAN.1080p.DOKU.WEB.h264-CDD
2019-03-25 10:13:16 VA-Miami_2019_Anthems_Techno-(LWMA201902)-WEB-2019-ENTANGLE
2019-03-25 10:13:47 VA-Rougher_and_Tougher_(Mixed_by_Adam_M)-(VCRMS010C)-WEB-2019-ENTANGLE
2019-03-25 10:14:17 VA-Rougher_and_Tougher_(Mixed_by_Ben_Stevens)-(VCRMS010B)-WEB-2019-ENTANGLE
2019-03-25 10:14:37 Goldrausch.White.Water.S02E04.Zum.greifen.nah.GERMAN.1080p.DOKU.WEB.h264-CDD
2019-03-25 10:15:45 VA-Nothing_But_Miami_Anthems_2019_House-(NBMIAMI2019A)-WEB-2019-ENTANGLE
2019-03-25 10:16:10 Down.The.Road.S01E04.FLEMISH.WEB.H264-MERCATOR
2019-03-25 10:20:48 Down.The.Road.S01E05.FLEMISH.WEB.H264-MERCATOR
2019-03-25 10:21:19 Pet.Sematary.1989.INTERNAL.2160p.UHD.BluRay.X265-IAMABLE
2019-03-25 10:22:06 Down.The.Road.S01E06.FLEMISH.WEB.H264-MERCATOR
2019-03-25 10:26:57 Soof.Een.Nieuw.Begin.S02E06.DUTCH.720p.HDTV.x264-DTOD
2019-03-25 10:31:47 Down.The.Road.S01E07.FLEMISH.WEB.H264-MERCATOR
2019-03-25 10:32:59 God.Friended.Me.S01E16.iNTERNAL.720p.WEB.H264-AMRAP
2019-03-25 10:33:07 DJ_Illans_Joneskilla_Master_Bass-Ou_Semb_Moin-SINGLE-WEB-FR-2019-OND
2019-03-25 10:33:57 God.Friended.Me.S01E17.iNTERNAL.720p.WEB.H264-AMRAP
2019-03-25 10:34:10 Eos_Le_Fou-Eosflix-SINGLE-WEB-FR-2019-OND
2019-03-25 10:34:40 Black.Lightning.S02E16.SPANiSH.1080p.WEB.x264-FCC
2019-03-25 10:34:58 God.Friended.Me.S01E18.iNTERNAL.720p.WEB.H264-AMRAP
2019-03-25 10:35:04 Black.Lightning.S02E16.SPANiSH.720p.WEB.x264-FCC
2019-03-25 10:35:14 Etnoz-Ca_Recommence-SINGLE-WEB-FR-2019-OND
2019-03-25 10:35:18 Black.Lightning.S02E16.SPANiSH.WEB.x264-FCC
2019-03-25 10:35:39 Black.Monday.S01E08.SPANiSH.SUBBED.1080p.HDTV.x264-FCC
2019-03-25 10:35:59 God.Friended.Me.S01E09.iNTERNAL.1080p.WEB.H264-AMRAP
2019-03-25 10:36:00 Black.Monday.S01E08.SPANiSH.SUBBED.720p.HDTV.x264-FCC
2019-03-25 10:36:14 Black.Monday.S01E08.SPANiSH.SUBBED.HDTV.x264-FCC
2019-03-25 10:36:22 Etnoz-Je_Sais_Pas_Joue-SINGLE-WEB-FR-2019-OND
2019-03-25 10:36:33 SMILF.S02E09.SPANiSH.1080p.HDTV.x264-FCC
2019-03-25 10:36:42 SMILF.S02E09.SPANiSH.720p.HDTV.x264-FCC
2019-03-25 10:36:52 SMILF.S02E09.SPANiSH.HDTV.x264-FCC
2019-03-25 10:37:01 God.Friended.Me.S01E09.iNTERNAL.720p.WEB.H264-AMRAP
2019-03-25 10:37:14 Etnoz-Marque_A_Vie-SINGLE-WEB-FR-2019-OND
2019-03-25 10:37:28 Down.The.Road.S01E08.FLEMISH.WEB.H264-MERCATOR
2019-03-25 10:38:14 Etnoz-Millemilliards-SINGLE-WEB-FR-2019-OND
2019-03-25 10:39:16 Etnoz-Niyak-SINGLE-WEB-FR-2019-OND
2019-03-25 10:40:18 Etnoz-Notime-SINGLE-WEB-FR-2019-OND
2019-03-25 10:41:18 Etnoz-Terrain-SINGLE-WEB-FR-2019-OND
2019-03-25 10:42:18 Kenny-Suiv_A_Moin-SINGLE-WEB-FR-2019-OND
2019-03-25 10:43:18 BeatBlenderz-Loaded_(From_A_Groove)-(BBC20192241)-WEB-2019-ENTANGLE
2019-03-25 10:43:19 Malik_Djoudi-Temperaments-WEB-FR-2019-OND
2019-03-25 10:43:28 Dee_Brown-Switch-EP-(BBC20192250)-WEB-2019-ENTANGLE
2019-03-25 10:43:37 Eco_Do_Ego-Aquijazz-(BBC20192239)-WEB-2019-ENTANGLE
2019-03-25 10:43:49 Fabio_Scalabroni-Equinox-(BBC20192252)-WEB-2019-ENTANGLE
2019-03-25 10:44:00 Forbes_and_Ilgner-Oracle-(BBC20192247)-WEB-2019-ENTANGLE
2019-03-25 10:44:12 Gr-oy-Red_Light-EP-(BBC20192248)-WEB-2019-ENTANGLE
2019-03-25 10:44:19 Flirty.Dancing.S01E04.NLSUBBED.WEB.x264-MERCATOR
2019-03-25 10:44:23 One_LisN-Lartiste-SINGLE-WEB-FR-2019-OND
2019-03-25 10:44:27 Jamez_and_Soulboy-Redone-(BBC20192234)-WEB-2019-ENTANGLE
2019-03-25 10:44:36 Kiilto-It_Hurts-(BBC20192253)-WEB-2019-ENTANGLE
2019-03-25 10:44:42 Little.Steven.and.The.Disciples.of.Soul.-.Soulfire.Live.DiSC.1.2017.COMPLETE.MBLURAY-HDMUSiC
2019-03-25 10:44:48 Peet-Movement_(Thru_Coloured_Glass)-(BBC20192240)-WEB-2019-ENTANGLE
2019-03-25 10:44:58 Sound_Profession-In_The_City-(BBC20192242)-WEB-2019-ENTANGLE
2019-03-25 10:45:09 Wonji-So_Good_Inside-EP-(BBC20192243)-WEB-2019-ENTANGLE
2019-03-25 10:45:21 RK-Booska_Reves_De_Gosse_(Freestyle)-SINGLE-WEB-FR-2019-OND
2019-03-25 10:46:21 The.Walking.Dead.S09E15.SUBFRENCH.720p.HDTV.x264-SH0W
2019-03-25 10:46:23 Saegge-Longue_Vie-SINGLE-WEB-FR-2019-OND
2019-03-25 10:47:24 Uccello_UCC-Pas_Demain-SINGLE-WEB-FR-2019-OND
2019-03-25 10:50:03 NCIS.Los.Angeles.S10E18.REPACK.iNTERNAL.720p.WEB.x264-BAMBOOZLE
2019-03-25 10:50:20 NCIS.Los.Angeles.S10E18.REPACK.iNTERNAL.1080p.WEB.x264-BAMBOOZLE
2019-03-25 10:52:46 The.Brokenwood.Mysteries.S05E03.FRENCH.720p.HDTV.x264-SH0W
2019-03-25 10:53:39 For.The.People.2018.S02E03.SUBFRENCH.720p.HDTV.x264-HYBRiS
2019-03-25 10:53:46 Flirty.Dancing.S01E05.NLSUBBED.WEB.x264-MERCATOR
2019-03-25 10:55:02 For.The.People.2018.S02E03.SUBFRENCH.1080p.HDTV.x264-HYBRiS
2019-03-25 10:58:08 Martech_feat_Marcie_Joy_-_Safe_With_Me-(CAT_291149)-WEB-2019-ZzZz
2019-03-25 11:01:08 The.Final.Wish.2018.LiMiTED.1080p.BluRay.x264-CADAVER
2019-03-25 11:02:07 Man.with.a.Plan.S03E08.720p.WEB.x264-TBS
2019-03-25 11:02:14 Man.with.a.Plan.S03E08.WEB.x264-TBS
2019-03-25 11:03:00 Man.with.a.Plan.S03E08.1080p.WEB.x264-TBS
2019-03-25 11:04:32 Star.Wars.Resistance.S01E13.READNFO.FRENCH.HDTV.x264-D4KiD
2019-03-25 11:05:14 Gent.West.S02E08.FLEMISH.WEB.x264-MERCATOR
2019-03-25 11:05:21 Star.Wars.Resistance.S01E13.iNTERNAL.FRENCH.720p.HDTV.x264-D4KiD
2019-03-25 11:09:14 The.Final.Wish.2018.LiMiTED.720p.BluRay.x264-CADAVER
2019-03-25 11:10:24 Goedele.On.Top.S02E06.FLEMISH.WEB.x264-MERCATOR
2019-03-25 11:12:06 VA_-_Hako_Presents_Fwmusic_Vol_4-(FWMDA_56)-WEB-2019-ZzZz
2019-03-25 11:13:34 VA-11.Hall-A.Cyberpunk.Bartender.Action.v1.1.0.4-DARKZER0
2019-03-25 11:15:12 Huizenjagers.S04E32.FLEMISH.WEB.x264-MERCATOR
2019-03-25 11:15:26 The.Final.Wish.2018.LiMiTED.BDRip.x264-CADAVER
2019-03-25 11:16:43 Undercover.In.Nederland.S27E05.DUTCH.720p.HDTV.x264-DTOD
2019-03-25 11:16:46 Man.with.a.Plan.S03E08.REPACK.720p.WEB.x264-TBS
2019-03-25 11:17:11 Man.with.a.Plan.S03E08.REPACK.1080p.WEB.x264-TBS
2019-03-25 11:17:32 LikeMe.S01E11.FLEMISH.WEB.H264-MERCATOR
2019-03-25 11:22:13 The.Final.Wish.2018.COMPLETE.BLURAY-VEXHD
2019-03-25 11:24:14 Man.Bijt.Hond.2003.12.05.FLEMISH.WEB.H264-MERCATOR
2019-03-25 11:27:01 Que_and_Rkay_-_Never_Meant_To_Be-(DNZF_474)-SINGLE-WEB-2019-ZzZz
2019-03-25 11:27:28 Forza_Duo_-_Elemental_(The_Remixes)-(PRK145)-WEB-2019-JUSTiFY
2019-03-25 11:28:09 LOKIMusic_-_L_S_Not_Dead-(DMAXD294)-SINGLE-WEB-2019-JUSTiFY
2019-03-25 11:28:56 Yuri_Yavorovskiy_-_Forever_and_Ever-(DSD237)-SINGLE-WEB-2019-JUSTiFY
2019-03-25 11:29:04 Rob_Heron_And_The_Tea_Pad_Orchestra-Soul_Of_My_City-2019-404
2019-03-25 11:29:27 Danny_And_Dusty-The_Lost_Weekend-1985-404
2019-03-25 11:30:17 Nico_Fidenco-Porno_Holocaust-OST-VINYL-2017-CRUELTY
2019-03-25 11:31:14 GloryHole.19.03.25.Syren.De.Mer.XXX.1080p.MP4-KTR
2019-03-25 11:32:11 My.Kitchen.Rules.S10E33.HDTV.x264-BATV
2019-03-25 11:33:27 BackroomCastingCouch.19.03.25.Theodora.XXX.1080p.MP4-KTR
2019-03-25 11:34:53 NCIS.Los.Angeles.S10E12.GERMAN.DL.DUBBED.1080p.WEB.h264-VoDTv
2019-03-25 11:35:36 NCIS.Los.Angeles.S10E12.GERMAN.DUBBED.720p.WEB.h264-idTV
2019-03-25 11:36:51 NCIS.Los.Angeles.S10E12.GERMAN.DUBBED.WEBRiP.x264-idTV
2019-03-25 11:40:43 Delusion_-_3-(D_03R)-SINGLE-WEB-2019-ZzZz
2019-03-25 11:41:44 Technics.Publications.C.Plus.Plus.Essential.Features.Functions.Arrays.Pointers.and.Strings-RiDWARE
2019-03-25 11:43:01 Twisted_and_Drake_Liddell_-_You_Make_Me_Feel_Good-(RE_152)-WEB-2019-ZzZz
2019-03-25 11:44:40 Eastshade.Update.v1.13a-PLAZA
2019-03-25 11:44:41 Nachtwacht.2019.Part.7.FLEMISH.WEB.H264-MERCATOR
2019-03-25 11:44:48 The.Hive.Update.v1.090-CODEX
2019-03-25 11:45:50 Nachtwacht.S01E07.FLEMISH.WEB.H264-MERCATOR
2019-03-25 11:49:08 Chessaria.The.Tactical.Adventure.Update.v1.10-CODEX
2019-03-25 11:51:20 My.Kitchen.Rules.S10E33.720p.HDTV.x264-BATV
2019-03-25 11:53:40 5th.Passenger.2018.DVDRip.x264-SPOOKS
2019-03-25 11:54:54 The.Real.Housewives.of.Atlanta.S11E19.1080p.WEB.x264-TBS
2019-03-25 11:55:48 The.Exorcism.of.Karen.Walker.2018.DVDRip.x264-SPOOKS
2019-03-25 11:56:37 Watch.What.Happens.Live.2019.03.17.Kandi.Burruss.and.Shamari.Devoe.720p.WEB.x264-TBS
2019-03-25 11:56:38 Watch.What.Happens.Live.2019.03.17.Kandi.Burruss.and.Shamari.Devoe.1080p.WEB.x264-TBS
2019-03-25 11:56:52 Watch.What.Happens.Live.2019.03.17.Kandi.Burruss.and.Shamari.Devoe.WEB.x264-TBS
2019-03-25 11:57:01 Shakespeare.And.Hathaway.Private.Investigators.S02E01.720p.BluRay.x264-BEDLAM
2019-03-25 11:57:58 Shakespeare.And.Hathaway.Private.Investigators.S02E02.720p.BluRay.x264-BEDLAM
2019-03-25 11:58:58 Shakespeare.And.Hathaway.Private.Investigators.S02E03.720p.BluRay.x264-BEDLAM
2019-03-25 12:00:02 Shakespeare.And.Hathaway.Private.Investigators.S02E04.720p.BluRay.x264-BEDLAM
2019-03-25 12:01:01 Shakespeare.And.Hathaway.Private.Investigators.S02E05.720p.BluRay.x264-BEDLAM
2019-03-25 12:02:03 Shakespeare.And.Hathaway.Private.Investigators.S02E06.720p.BluRay.x264-BEDLAM
2019-03-25 12:03:05 Shakespeare.And.Hathaway.Private.Investigators.S02E07.720p.BluRay.x264-BEDLAM
2019-03-25 12:03:49 VE3_-_Andromeda-DAB-03-18-2019-TALiON
2019-03-25 12:04:05 Shakespeare.And.Hathaway.Private.Investigators.S02E08.720p.BluRay.x264-BEDLAM
2019-03-25 12:05:07 Shakespeare.And.Hathaway.Private.Investigators.S02E09.720p.BluRay.x264-BEDLAM
2019-03-25 12:05:22 Side_Fx_and_Paul_Cronin_-_Acid_Tuff-(CAT_280011)-WEB-2019-ZzZz
2019-03-25 12:05:54 Scandal.US.S05E08.MULTi.1080p.WEB.H264-NERO
2019-03-25 12:06:08 Shakespeare.And.Hathaway.Private.Investigators.S02E10.720p.BluRay.x264-BEDLAM
2019-03-25 12:07:25 Criminal.Minds.S01E05.MULTi.1080p.WEB.H264-NERO
2019-03-25 12:09:02 Eufeion_-_Love_Story_(Happy_Hardcore_Mix)-(RPREC_001)-SINGLE-WEB-2019-ZzZz
2019-03-25 12:09:04 Criminal.Minds.S06E01.MULTi.1080p.WEB.H264-NERO
2019-03-25 12:09:28 The.Triple.Echo.1972.1080p.BluRay.x264-SPOOKS
2019-03-25 12:10:59 Little.Steven.and.The.Disciples.of.Soul.-.Soulfire.Live.DiSC.2.2017.COMPLETE.MBLURAY-HDMUSiC
2019-03-25 12:11:08 Criminal.Minds.S06E02.MULTi.1080p.WEB.H264-NERO
2019-03-25 12:11:29 Urban_Brainchild_-_305_Takeover-DAB-03-12-2019-TALiON
2019-03-25 12:13:13 Criminal.Minds.S06E03.MULTi.1080p.WEB.H264-NERO
2019-03-25 12:14:29 The.Triple.Echo.1972.720p.BluRay.x264-SPOOKS
2019-03-25 12:15:10 Nico_Fidenco-Porno_Holocaust-OST-VINYL-FLAC-2017-CRUELTY
2019-03-25 12:15:17 Criminal.Minds.S06E04.MULTi.1080p.WEB.H264-NERO
2019-03-25 12:15:46 Yozu_-_Bouncin_Alone-(TIOS_036)-SINGLE-WEB-2019-ZzZz
2019-03-25 12:16:15 Tuneblasterz_-_Lonelyness_(Remixes)-(TUNLONELYNES219)-WEB-2019-JUSTiFY
2019-03-25 12:16:29 VA-Miami_Dance_and_Trance_Wmc_2019-(SKACWMC2019)-WEB-2019-JUSTiFY
2019-03-25 12:16:32 The.Triple.Echo.1972.BDRip.x264-SPOOKS
2019-03-25 12:17:20 Criminal.Minds.S06E05.MULTi.1080p.WEB.H264-NERO
2019-03-25 12:17:43 Married.to.Medicine.Los.Angeles.S01E04.1080p.WEB.x264-TBS
2019-03-25 12:19:11 The.Triple.Echo.1972.COMPLETE.BLURAY-VEXHD
2019-03-25 12:19:25 Criminal.Minds.S06E06.MULTi.1080p.WEB.H264-NERO
2019-03-25 12:21:14 Bad.Mothers.S01E06.HDTV.x264-FQM
2019-03-25 12:21:29 Criminal.Minds.S06E07.MULTi.1080p.WEB.H264-NERO
2019-03-25 12:22:10 Shakespeare.And.Hathaway.Private.Investigators.S02E01.BDRip.x264-BEDLAM
2019-03-25 12:23:11 The_Galdean_-_Braveheart-(GR_006)-WEB-2019-ZzZz
2019-03-25 12:23:12 Shakespeare.And.Hathaway.Private.Investigators.S02E02.BDRip.x264-BEDLAM
2019-03-25 12:23:32 Criminal.Minds.S06E08.MULTi.1080p.WEB.H264-NERO
2019-03-25 12:24:13 Shakespeare.And.Hathaway.Private.Investigators.S02E03.BDRip.x264-BEDLAM
2019-03-25 12:25:16 Shakespeare.And.Hathaway.Private.Investigators.S02E04.BDRip.x264-BEDLAM
2019-03-25 12:25:37 Criminal.Minds.S06E09.MULTi.1080p.WEB.H264-NERO
2019-03-25 12:26:17 Shakespeare.And.Hathaway.Private.Investigators.S02E05.BDRip.x264-BEDLAM
2019-03-25 12:27:20 Shakespeare.And.Hathaway.Private.Investigators.S02E06.BDRip.x264-BEDLAM
2019-03-25 12:27:41 Criminal.Minds.S06E10.MULTi.1080p.WEB.H264-NERO
2019-03-25 12:27:43 Overthinking.With.Kat.and.June.S01E03.1080p.WEB.H264-TVSLiCES
2019-03-25 12:28:21 Shakespeare.And.Hathaway.Private.Investigators.S02E07.BDRip.x264-BEDLAM
2019-03-25 12:28:27 Overthinking.With.Kat.and.June.S01E04.1080p.WEB.H264-TVSLiCES
2019-03-25 12:28:39 Bad.Mothers.S01E06.720p.HDTV.x264-ORENJI
2019-03-25 12:28:47 Overthinking.With.Kat.and.June.S01E04.720p.WEB.H264-TVSLiCES
2019-03-25 12:29:09 Overthinking.With.Kat.and.June.S01E05.1080p.WEB.H264-TVSLiCES
2019-03-25 12:29:22 Shakespeare.And.Hathaway.Private.Investigators.S02E08.BDRip.x264-BEDLAM
2019-03-25 12:29:29 Overthinking.With.Kat.and.June.S01E05.720p.WEB.H264-TVSLiCES
2019-03-25 12:29:44 Criminal.Minds.S06E11.MULTi.1080p.WEB.H264-NERO
2019-03-25 12:29:51 Overthinking.With.Kat.and.June.S01E06.1080p.WEB.H264-TVSLiCES
2019-03-25 12:30:12 Overthinking.With.Kat.and.June.S01E06.720p.WEB.H264-TVSLiCES
2019-03-25 12:30:25 Shakespeare.And.Hathaway.Private.Investigators.S02E09.BDRip.x264-BEDLAM
2019-03-25 12:31:06 Overthinking.With.Kat.and.June.S01E03.720p.WEB.H264-TVSLiCES
2019-03-25 12:31:27 Shakespeare.And.Hathaway.Private.Investigators.S02E10.BDRip.x264-BEDLAM
2019-03-25 12:31:48 Criminal.Minds.S06E12.MULTi.1080p.WEB.H264-NERO
2019-03-25 12:32:06 Overthinking.With.Kat.and.June.S01E01.iNTERNAL.1080p.WEB.H264-TVSLiCES
2019-03-25 12:32:19 Overthinking.With.Kat.and.June.S01E01.iNTERNAL.720p.WEB.H264-TVSLiCES
2019-03-25 12:32:27 Overthinking.With.Kat.and.June.S01E02.iNTERNAL.1080p.WEB.H264-TVSLiCES
2019-03-25 12:32:35 Overthinking.With.Kat.and.June.S01E02.iNTERNAL.720p.WEB.H264-TVSLiCES
2019-03-25 12:33:54 Criminal.Minds.S06E13.MULTi.1080p.WEB.H264-NERO
2019-03-25 12:35:40 Nachtwacht.S02E07.FLEMISH.WEB.H264-MERCATOR
2019-03-25 12:35:57 Criminal.Minds.S06E14.MULTi.1080p.WEB.H264-NERO
2019-03-25 12:38:01 Criminal.Minds.S06E15.MULTi.1080p.WEB.H264-NERO
2019-03-25 12:38:22 Nachtwacht.S03E07.FLEMISH.WEB.H264-MERCATOR
2019-03-25 12:38:45 Prefix_and_Density_-_Grey_Clouds-SINGLE-WEB-2019-MMS
2019-03-25 12:40:03 Vlastimil_Vondruska-Pripad_masopustnich_maskar-WEB-CZ-2013-I_KnoW_INT
2019-03-25 12:40:05 Criminal.Minds.S06E16.MULTi.1080p.WEB.H264-NERO
2019-03-25 12:40:26 Vlastimil_Vondruska-Plzenske_mordy-WEB-CZ-2014-I_KnoW_INT
2019-03-25 12:40:55 Vlastimil_Vondruska-Bratrstvo_kristalu-WEB-CZ-2018-I_KnoW_INT
2019-03-25 12:41:29 Vlastimil_Vondruska-Jmenem_krale-WEB-CZ-2012-I_KnoW_INT
2019-03-25 12:41:30 Instinct.US.S01E07.REPACK.DVDRip.x264-PFa
2019-03-25 12:42:02 Vlastimil_Vondruska-Adventni_kletba-WEB-CZ-2014-I_KnoW_INT
2019-03-25 12:42:09 Criminal.Minds.S06E17.MULTi.1080p.WEB.H264-NERO
2019-03-25 12:42:30 Vlastimil_Vondruska-Zahada_zlate_stoly-WEB-CZ-2008-I_KnoW_INT
2019-03-25 12:42:34 Urban_Brainchild_-_305_Takeover-DAB-03-13-2019-TALiON
2019-03-25 12:42:43 Fussball.UEFA.EM.2020.Qualifikation.Gruppe.C.Niederlande.vs.Deutschland.GERMAN.HDTVRip.x264-TVARCHiV
2019-03-25 12:42:56 Urban_Brainchild_-_305_Takeover-DAB-03-14-2019-TALiON
2019-03-25 12:43:01 Vlastimil_Vondruska-Ulicka_hanby-WEB-CZ-2015-I_KnoW_INT
2019-03-25 12:43:37 Urban_Brainchild_-_305_Takeover-DAB-03-18-2019-TALiON
2019-03-25 12:43:58 Instinct.US.S01E08.REPACK.DVDRip.x264-PFa
2019-03-25 12:44:13 Criminal.Minds.S06E18.MULTi.1080p.WEB.H264-NERO
2019-03-25 12:44:43 The.Coming.of.Sin.1978.1080p.BluRay.x264-GHOULS
2019-03-25 12:46:18 Criminal.Minds.S06E19.MULTi.1080p.WEB.H264-NERO
2019-03-25 12:46:53 Instinct.US.S01E09.REPACK.DVDRip.x264-PFa
2019-03-25 12:48:21 Criminal.Minds.S06E20.MULTi.1080p.WEB.H264-NERO
2019-03-25 12:48:27 The.Coming.of.Sin.1978.720p.BluRay.x264-GHOULS
2019-03-25 12:48:50 Instinct.US.S01E10.REPACK.DVDRip.x264-PFa
2019-03-25 12:49:28 Naked.Attraction.S02E01.NLSUBBED.WEB.x264-MERCATOR
2019-03-25 12:50:25 Criminal.Minds.S06E21.MULTi.1080p.WEB.H264-NERO
2019-03-25 12:50:40 Instinct.US.S01E11.REPACK.DVDRip.x264-PFa
2019-03-25 12:50:48 Adrian_B-Sniff_Sniff-SINGLE-WEB-2019-JAH
2019-03-25 12:50:57 Aidrogen-Underestimate_Mi-SINGLE-WEB-2019-JAH
2019-03-25 12:51:10 Artikyoul8-God_a_Mih_Friend-SINGLE-WEB-2019-JAH
2019-03-25 12:51:21 BB_Seaton-In_It_to_Win_It-WEB-2019-JAH
2019-03-25 12:51:31 Bennie_Mellies-Amor_Riddim-SINGLE-WEB-2019-JAH
2019-03-25 12:51:32 The.Coming.of.Sin.1978.BDRip.x264-GHOULS
2019-03-25 12:51:44 Bennie_Mellies-Callao_Riddim-SINGLE-WEB-2019-JAH
2019-03-25 12:51:55 Bennie_Mellies-Diggity_Riddim-SINGLE-WEB-2019-JAH
2019-03-25 12:52:05 Bennie_Mellies-Ganador_Riddim-SINGLE-WEB-2019-JAH
2019-03-25 12:52:16 Bennie_Mellies-Long_Time_Riddim-SINGLE-WEB-2019-JAH
2019-03-25 12:52:27 Bennie_Mellies-Lova_Riddim-SINGLE-WEB-2019-JAH
2019-03-25 12:52:30 Criminal.Minds.S06E22.MULTi.1080p.WEB.H264-NERO
2019-03-25 12:52:39 Bennie_Mellies-Mamacita_Riddim-SINGLE-WEB-2019-JAH
2019-03-25 12:52:41 Instinct.US.S01E12.REPACK.DVDRip.x264-PFa
2019-03-25 12:52:51 Bennie_Mellies-Mysterious_Riddim-SINGLE-WEB-2019-JAH
2019-03-25 12:53:02 Bennie_Mellies-Nina_Riddim-SINGLE-WEB-2019-JAH
2019-03-25 12:53:13 Bennie_Mellies-Secret_Riddim-SINGLE-WEB-2019-JAH
2019-03-25 12:53:24 Bennie_Mellies-Solido_Riddim-SINGLE-WEB-2019-JAH
2019-03-25 12:53:36 Crazy_Smile-Turun_Naik_Oles_Trus-SINGLE-WEB-2019-JAH
2019-03-25 12:53:46 DON_WAY-Hey_Gal-SINGLE-WEB-2019-JAH
2019-03-25 12:53:58 Don_Scrue-She_Tight_Tight-SINGLE-WEB-2019-JAH
2019-03-25 12:54:00 Urban_Brainchild_-_305_Takeover-DAB-03-19-2019-TALiON
2019-03-25 12:54:05 Temptation.Island.BE.S11E07.FLEMISH.WEB.x264-MERCATOR
2019-03-25 12:54:10 Engel_Gold-Bipolar-SINGLE-WEB-2019-JAH
2019-03-25 12:54:21 Get_a_Better_Beat-Got_What_You_Need-SINGLE-WEB-2019-JAH
2019-03-25 12:54:33 Hydal-King_Ting-SINGLE-WEB-2019-JAH
2019-03-25 12:54:34 Criminal.Minds.S06E23.MULTi.1080p.WEB.H264-NERO
2019-03-25 12:54:39 Urban_Brainchild_-_305_Takeover-DAB-03-20-2019-TALiON
2019-03-25 12:54:47 The_Sons_of_Africa_Ricky_Grant-Coming_Home_(The_Rockers_International_Legends)-SINGLE-WEB-2019-JAH
2019-03-25 12:54:53 Instinct.US.S01E13.REPACK.DVDRip.x264-PFa
2019-03-25 12:54:58 Vonn_Riley-Show_Them-SINGLE-WEB-2019-JAH
2019-03-25 12:56:37 Criminal.Minds.S06E24.FiNAL.MULTi.1080p.WEB.H264-NERO
2019-03-25 12:56:45 Criminal.Minds.S07E01.MULTi.1080p.WEB.H264-NERO
2019-03-25 12:58:49 Criminal.Minds.S07E02.MULTi.1080p.WEB.H264-NERO
2019-03-25 13:00:35 Trafiek.Axel.S01E05.FLEMISH.WEB.x264-MERCATOR
2019-03-25 13:00:53 Criminal.Minds.S07E03.MULTi.1080p.WEB.H264-NERO
2019-03-25 13:02:58 Criminal.Minds.S07E04.MULTi.1080p.WEB.H264-NERO
2019-03-25 13:05:04 Criminal.Minds.S07E05.MULTi.1080p.WEB.H264-NERO
2019-03-25 13:05:14 Ann_Doka-Little_Miss_Sunshine-SINGLE-WEB-2016-ENRiCH
2019-03-25 13:05:25 Ann_Doka-Lost_but_Found-WEB-2018-ENRiCH
2019-03-25 13:05:36 Ann_Doka-Only_If-SINGLE-WEB-2019-ENRiCH
2019-03-25 13:05:58 Alkaline-With_the_Thing-WEB-2015-JAH
2019-03-25 13:06:07 Dray_Voyahj-Bellwether-SINGLE-WEB-2019-JAH
2019-03-25 13:06:18 Jagan_Makoka-Drole_De_Vie_(Chapitre_1)-WEB-FR-2019-JAH
2019-03-25 13:06:29 Minor_P-Bad_Gyal-SINGLE-WEB-2019-JAH
2019-03-25 13:06:42 Zagga-Holding_On-SINGLE-WEB-2019-JAH
2019-03-25 13:07:05 Criminal.Minds.S07E06.MULTi.1080p.WEB.H264-NERO
2019-03-25 13:08:57 Twee.Tot.De.Zesde.Macht.S06E05.FLEMISH.WEB.H264-MERCATOR
2019-03-25 13:09:09 Criminal.Minds.S07E07.MULTi.1080p.WEB.H264-NERO
2019-03-25 13:11:03 Undercover.S01E05.FLEMISH.WEB.H264-MERCATOR
2019-03-25 13:11:13 Criminal.Minds.S07E08.MULTi.1080p.WEB.H264-NERO
2019-03-25 13:12:11 Van.Algemeen.Nut.S02E06.FLEMISH.WEB.H264-MERCATOR
2019-03-25 13:13:18 Criminal.Minds.S07E09.MULTi.1080p.WEB.H264-NERO
2019-03-25 13:13:37 Fussball.UEFA.EM.2020.Qualifikation.Gruppe.C.Niederlande.vs.Deutschland.GERMAN.720p.HDTV.x264-TVARCHiV
2019-03-25 13:13:53 Klubbingman_-_Live_at_Prater_Bochum-SAT-03-24-2019-XDS
2019-03-25 13:14:11 Aquagen_-_Live_at_Prater_Bochum-SAT-03-24-2019-XDS
2019-03-25 13:14:26 Brooklyn_Bounce_-_Live_at_Prater_Bochum-SAT-03-24-2019-XDS
2019-03-25 13:14:45 Jay_Frog_-_Live_at_Prater_Bochum-SAT-03-24-2019-XDS
2019-03-25 13:15:05 Schiller_-_Live_at_Studio_Session-SAT-03-18-2019-XDS
2019-03-25 13:15:21 Criminal.Minds.S07E10.MULTi.1080p.WEB.H264-NERO
2019-03-25 13:17:25 Criminal.Minds.S07E11.MULTi.1080p.WEB.H264-NERO
2019-03-25 13:17:36 Phantom.Thief.Celianna-DARKSiDERS
2019-03-25 13:19:29 Criminal.Minds.S07E12.MULTi.1080p.WEB.H264-NERO
2019-03-25 13:21:34 Criminal.Minds.S07E13.MULTi.1080p.WEB.H264-NERO
2019-03-25 13:23:38 Criminal.Minds.S07E14.MULTi.1080p.WEB.H264-NERO
2019-03-25 13:24:52 Americas.Child.Brides.2019.WEB.H264-UNDERBELLY
2019-03-25 13:25:42 Criminal.Minds.S07E15.MULTi.1080p.WEB.H264-NERO
2019-03-25 13:25:54 Americas.Child.Brides.2019.720p.WEBRip.x264-UNDERBELLY
2019-03-25 13:26:40 Shakespeare.And.Hathaway.Private.Investigators.S02E01.1080p.BluRay.x264-BEDLAM
2019-03-25 13:27:46 Criminal.Minds.S07E16.MULTi.1080p.WEB.H264-NERO
2019-03-25 13:29:23 Shakespeare.And.Hathaway.Private.Investigators.S02E02.1080p.BluRay.x264-BEDLAM
2019-03-25 13:29:50 Criminal.Minds.S07E17.MULTi.1080p.WEB.H264-NERO
2019-03-25 13:30:04 4.Blocks.S02E04.FRENCH.720p.HDTV.x264-SH0W
2019-03-25 13:30:11 Trapped.2015.S02E07.FRENCH.720p.HDTV.x264-SH0W
2019-03-25 13:30:17 Trapped.2015.S02E08.FRENCH.720p.HDTV.x264-SH0W
2019-03-25 13:31:54 Criminal.Minds.S07E18.MULTi.1080p.WEB.H264-NERO
2019-03-25 13:32:06 Shakespeare.And.Hathaway.Private.Investigators.S02E03.1080p.BluRay.x264-BEDLAM
2019-03-25 13:33:58 Criminal.Minds.S07E19.MULTi.1080p.WEB.H264-NERO
2019-03-25 13:34:54 Shakespeare.And.Hathaway.Private.Investigators.S02E04.1080p.BluRay.x264-BEDLAM
2019-03-25 13:36:02 Criminal.Minds.S07E20.MULTi.1080p.WEB.H264-NERO
2019-03-25 13:37:46 Shakespeare.And.Hathaway.Private.Investigators.S02E05.1080p.BluRay.x264-BEDLAM
2019-03-25 13:38:06 Criminal.Minds.S07E21.MULTi.1080p.WEB.H264-NERO
2019-03-25 13:38:49 My.Asshole.Is.All.Yours.XXX.720p.WEBRip.MP4-VSEX
2019-03-25 13:39:12 Sllash_and_Doppe-Housesession-SAT-03-24-2019-PTC
2019-03-25 13:40:10 Criminal.Minds.S07E22.MULTi.1080p.WEB.H264-NERO
2019-03-25 13:40:25 Shakespeare.And.Hathaway.Private.Investigators.S02E06.1080p.BluRay.x264-BEDLAM
2019-03-25 13:42:14 Criminal.Minds.S07E23.MULTi.1080p.WEB.H264-NERO
2019-03-25 13:42:49 My.Asshole.Is.All.Yours.XXX.1080p.WEBRip.MP4-VSEX
2019-03-25 13:42:55 W_and_W_and_Maurice_West_-_Matrix-SINGLE-WEB-2019-ZzZz
2019-03-25 13:43:10 Shakespeare.And.Hathaway.Private.Investigators.S02E07.1080p.BluRay.x264-BEDLAM
2019-03-25 13:44:09 XIII.Die.Verschwoerung.Teil.1.2008.GERMAN.DL.1080p.BluRay.x264-UNiVERSUM
2019-03-25 13:44:17 Criminal.Minds.S07E24.FiNAL.MULTi.1080p.WEB.H264-NERO
2019-03-25 13:46:00 Shakespeare.And.Hathaway.Private.Investigators.S02E08.1080p.BluRay.x264-BEDLAM
2019-03-25 13:46:48 Monster.Orgasms.XXX.720p.WEBRip.MP4-VSEX
2019-03-25 13:47:42 The.Coming.of.Sin.1978.COMPLETE.BLURAY-VEXHD
2019-03-25 13:48:23 XIII.Die.Verschwoerung.Teil.2.2008.GERMAN.DL.1080p.BluRay.x264-UNiVERSUM
2019-03-25 13:48:36 Shakespeare.And.Hathaway.Private.Investigators.S02E09.1080p.BluRay.x264-BEDLAM
2019-03-25 13:49:38 101.Dalmatian.Street.S01E02B.FRENCH.720p.HDTV.x264-D4KiD
2019-03-25 13:50:25 101.Dalmatian.Street.S01E02B.FRENCH.HDTV.x264-D4KiD
2019-03-25 13:50:47 Monster.Orgasms.XXX.1080p.WEBRip.MP4-VSEX
2019-03-25 13:50:58 Escaping.Gangs.Death.Jail.or.Redemption.S01E01.WEB.H264-UNDERBELLY
2019-03-25 13:51:10 101.Dalmatian.Street.S01E03A.FRENCH.720p.HDTV.x264-D4KiD
2019-03-25 13:51:56 Escaping.Gangs.Death.Jail.or.Redemption.S01E01.720p.WEBRip.x264-UNDERBELLY
2019-03-25 13:52:01 101.Dalmatian.Street.S01E03A.FRENCH.HDTV.x264-D4KiD
2019-03-25 13:52:44 101.Dalmatian.Street.S01E03B.FRENCH.720p.HDTV.x264-D4KiD
2019-03-25 13:53:06 Escaping.Gangs.Death.Jail.or.Redemption.S01E02.WEB.H264-UNDERBELLY
2019-03-25 13:53:31 101.Dalmatian.Street.S01E03B.FRENCH.HDTV.x264-D4KiD
2019-03-25 13:54:00 Escaping.Gangs.Death.Jail.or.Redemption.S01E02.720p.WEBRip.x264-UNDERBELLY
2019-03-25 13:54:17 101.Dalmatian.Street.S01E04A.FRENCH.720p.HDTV.x264-D4KiD
2019-03-25 13:54:47 Kinjirareta.Kankei.3.XXX.720p.WEBRip.MP4-VSEX
2019-03-25 13:55:05 Escaping.Gangs.Death.Jail.or.Redemption.S01E03.WEB.H264-UNDERBELLY
2019-03-25 13:55:12 101.Dalmatian.Street.S01E04A.FRENCH.HDTV.x264-D4KiD
2019-03-25 13:56:02 Escaping.Gangs.Death.Jail.or.Redemption.S01E03.720p.WEBRip.x264-UNDERBELLY
2019-03-25 13:56:08 Fussball.UEFA.EM.2020.Qualifikation.Gruppe.C.Niederlande.vs.Deutschland.GERMAN.1080p.HDTV.x264-TVARCHiV
2019-03-25 13:58:47 Kinjirareta.Kankei.3.XXX.1080p.WEBRip.MP4-VSEX
2019-03-25 14:02:48 Girlfriends.Vacation.Sex.Tapes.XXX.720p.WEBRip.MP4-VSEX
2019-03-25 14:06:27 Mega.Shippers.UK.S01E04.WEB.x264-UNDERBELLY
2019-03-25 14:06:45 Girlfriends.Vacation.Sex.Tapes.XXX.1080p.WEBRip.MP4-VSEX
2019-03-25 14:07:29 Mega.Shippers.UK.S01E04.720p.WEB.x264-UNDERBELLY
2019-03-25 14:08:31 Mega.Shippers.UK.S01E04.1080p.WEB.x264-UNDERBELLY
2019-03-25 14:09:04 XIII.Die.Verschwoerung.Teil.1.2008.GERMAN.720p.BluRay.x264-UNiVERSUM
2019-03-25 14:10:26 XIII.Die.Verschwoerung.Teil.2.2008.GERMAN.720p.BluRay.x264-UNiVERSUM
2019-03-25 14:12:37 Echoes.Live.From.The.Dark.Side.A.Tribute.To.Pink.Floyd.2019.COMPLETE.MBLURAY-MBLURAYFANS
2019-03-25 14:16:49 XIII.Die.Verschwoerung.Teil.1.GERMAN.2008.REMASTERED.AC3.BDRip.x264-UNiVERSUM
2019-03-25 14:17:06 Himawari.The.Sunflower-DARKSiDERS
2019-03-25 14:17:39 XIII.Die.Verschwoerung.Teil.2.GERMAN.2008.REMASTERED.AC3.BDRip.x264-UNiVERSUM
2019-03-25 14:22:51 Soof.Een.Nieuw.Begin.S02E06.DUTCH.1080p.HDTV.x264-DTOD
2019-03-25 14:26:48 Undercover.In.Nederland.S27E05.DUTCH.1080p.HDTV.x264-DTOD
2019-03-25 14:32:35 American.Gods.S02E03.FRENCH.720p.WEB.H264-CiELOS
2019-03-25 14:36:24 American.Gods.S02E03.MULTi.1080p.WEB.H264-CiELOS
2019-03-25 14:42:32 Degom-Le_Muge-SINGLE-WEB-FR-2015-OND
2019-03-25 14:43:37 Degom-Une_Autre_Planete-WEB-FR-2010-OND
2019-03-25 14:44:38 Degom-Visceral-WEB-FR-2015-OND
2019-03-25 14:48:15 ToyMakerz.S03E03.720p.WEB.h264-CookieMonster
2019-03-25 14:49:21 ToyMakerz.S03E03.WEB.h264-CookieMonster
2019-03-25 14:50:25 Hawaii.Five.0.S08E01.German.BDRip.x264-EXCiTED
2019-03-25 14:50:29 Bar.Rescue.S06E26.1080p.WEB.x264-CookieMonster
2019-03-25 14:51:27 Hawaii.Five.0.S08E01.German.DL.720p.BluRay.x264-EXCiTED
2019-03-25 14:52:38 Hawaii.Five.0.S08E01.German.DL.1080p.BluRay.x264-EXCiTED
2019-03-25 14:59:40 The.Restaurant.2017.COMPLETE.BLURAY-iTWASNTME
2019-03-25 15:02:31 Paradise.Hotel.S12E10.SWEDiSH.720p.WEB.H264-EXECUTION
2019-03-25 15:02:53 Paradise.Hotel.S12E10.SWEDiSH.1080p.WEB.H264-EXECUTION
2019-03-25 15:05:01 Coisa.Mais.Linda.S01E01.FRENCH.720p.WEB.x264-CARAPiLS
2019-03-25 15:06:03 Coisa.Mais.Linda.S01E02.FRENCH.720p.WEB.x264-CARAPiLS
2019-03-25 15:07:06 Coisa.Mais.Linda.S01E03.FRENCH.720p.WEB.x264-CARAPiLS
2019-03-25 15:07:31 Mr.Hockey.The.Gordie.Howe.Story.2013.GERMAN.DL.1080p.BluRay.x264-UNiVERSUM
2019-03-25 15:08:07 Coisa.Mais.Linda.S01E04.FRENCH.720p.WEB.x264-CARAPiLS
2019-03-25 15:09:10 Coisa.Mais.Linda.S01E05.FRENCH.720p.WEB.x264-CARAPiLS
2019-03-25 15:09:57 Colonization_of_the_Moon-RAZOR
2019-03-25 15:10:11 Coisa.Mais.Linda.S01E06.FRENCH.720p.WEB.x264-CARAPiLS
2019-03-25 15:10:31 Infinity_Solitaire-RAZOR
2019-03-25 15:11:15 Coisa.Mais.Linda.S01E07.FiNAL.FRENCH.720p.WEB.x264-CARAPiLS
2019-03-25 15:11:30 Kymatik-Hawkeye___Ultraviolet_Hills-(BB073)-WEB-2019-AFO
2019-03-25 15:11:32 The_Chronicles_of_King_Arthur_Ep_2_Knights_of_the_Round_Table-RAZOR
2019-03-25 15:12:17 Delhi.Crime.S01E01.SUBFRENCH.720p.WEB.x264-CARAPiLS
2019-03-25 15:12:25 Moshic-Far_Far_and_Close__Far_Far_Away-(CON082)-WEB-2019-AFO
2019-03-25 15:12:50 BreakingAsses.19.03.25.Angel.Wicky.XXX.1080p.MP4-KTR
2019-03-25 15:12:56 Moshic-Touched_By_History__Touched_By_The_Past-(CON083)-WEB-2019-AFO
2019-03-25 15:13:10 Horisont.2019.03.25.Stephanie.Og.De.Gule.Veste.DANiSH.720p.WEB.h264-DANES
2019-03-25 15:13:21 Delhi.Crime.S01E02.SUBFRENCH.720p.WEB.x264-CARAPiLS
2019-03-25 15:13:46 Grendel-Inhumane_Amusement_At_The_End_Of_Ages_Redux_2000-2002-Remastered-2CD-2019-FWYH
2019-03-25 15:13:52 Mr.Hockey.The.Gordie.Howe.Story.2013.GERMAN.720p.BluRay.x264-UNiVERSUM
2019-03-25 15:14:14 Falkke-My_Grey_Sky-(RVL082)-WEB-2019-AFO
2019-03-25 15:14:15 VA-Infacted_7-CD-2019-FWYH
2019-03-25 15:14:25 Delhi.Crime.S01E03.SUBFRENCH.720p.WEB.x264-CARAPiLS
2019-03-25 15:15:27 Delhi.Crime.S01E04.SUBFRENCH.720p.WEB.x264-CARAPiLS
2019-03-25 15:15:48 VA-Depths_Of_Mind__Vol_9-(LP179)-WEB-2019-AFO
2019-03-25 15:16:29 Delhi.Crime.S01E05.SUBFRENCH.720p.WEB.x264-CARAPiLS
2019-03-25 15:17:32 Delhi.Crime.S01E06.SUBFRENCH.720p.WEB.x264-CARAPiLS
2019-03-25 15:18:35 Delhi.Crime.S01E07.FiNAL.SUBFRENCH.720p.WEB.x264-CARAPiLS
2019-03-25 15:19:32 Backsvart_and_Dpop-Zalt_EP-(SEAW017)-WEB-2019-AFO
2019-03-25 15:22:23 VA-Selected_Remixes-(HV032)-WEB-2019-AFO
2019-03-25 15:22:44 Ambulansen.S01E13.NORWEGiAN.1080p.WEB.x264-KOMPOST
2019-03-25 15:24:07 Ambulansen.S01E13.NORWEGiAN.WEB.x264-KOMPOST
2019-03-25 15:24:40 HushPass.19.03.25.Kayla.Synz.XXX.1080p.MP4-TRASHBIN
2019-03-25 15:25:24 Ambulansen.S01E14.NORWEGiAN.1080p.WEB.x264-KOMPOST
2019-03-25 15:26:23 InterracialPass.19.03.25.Kimber.XXX.1080p.MP4-TRASHBIN
2019-03-25 15:26:45 Ambulansen.S01E14.NORWEGiAN.WEB.x264-KOMPOST
2019-03-25 15:28:06 Ambulansen.S01E15.NORWEGiAN.1080p.WEB.x264-KOMPOST
2019-03-25 15:29:26 Ambulansen.S01E15.NORWEGiAN.WEB.x264-KOMPOST
2019-03-25 15:30:45 Ambulansen.S01E16.NORWEGiAN.1080p.WEB.x264-KOMPOST
2019-03-25 15:32:08 Ambulansen.S01E16.NORWEGiAN.WEB.x264-KOMPOST
2019-03-25 15:33:24 Ras.S01E21.NORWEGiAN.1080p.WEB.x264-KOMPOST
2019-03-25 15:34:09 Hackerville.S01E01.German.BDRip.x264-EXCiTED
2019-03-25 15:34:44 Ras.S01E21.NORWEGiAN.WEB.x264-KOMPOST
2019-03-25 15:35:14 Hackerville.S01E01.German.720p.BluRay.x264-EXCiTED
2019-03-25 15:36:05 Ras.S01E22.NORWEGiAN.1080p.WEB.x264-KOMPOST
2019-03-25 15:36:16 Hackerville.S01E01.German.1080p.BluRay.x264-EXCiTED
2019-03-25 15:37:26 Ras.S01E22.NORWEGiAN.WEB.x264-KOMPOST
2019-03-25 15:37:40 Robb_MC_Adam-Sick_Note-(DM112)-WEB-2019-AFO
2019-03-25 15:38:47 Ras.S01E23.NORWEGiAN.1080p.WEB.x264-KOMPOST
2019-03-25 15:40:07 Ras.S01E23.NORWEGiAN.WEB.x264-KOMPOST
2019-03-25 15:41:05 Mr.Hockey.The.Gordie.Howe.Story.GERMAN.2013.AC3.BDRip.x264-UNiVERSUM
2019-03-25 15:41:25 Ras.S01E24.NORWEGiAN.1080p.WEB.x264-KOMPOST
2019-03-25 15:42:47 Ras.S01E24.NORWEGiAN.WEB.x264-KOMPOST
2019-03-25 15:43:33 4-Stjerners.Middag.S11E45.NORWEGiAN.WEB.x264-KOMPOST
2019-03-25 15:44:16 4-Stjerners.Middag.S11E45.NORWEGiAN.1080p.WEB.x264-KOMPOST
2019-03-25 15:44:27 Mirko_Alimenti_and_Max_Crisafulli_-_Cassiopea-(JOLTI_008)-WEB-2019-ZzZz
2019-03-25 15:48:30 Arrow.S07E15.FRENCH.WEB.x264-AMB3R
2019-03-25 15:48:43 Black.Lightning.S02E16.FRENCH.WEB.x264-AMB3R
2019-03-25 15:48:58 Dynasty.2017.S02E15.FRENCH.WEB.x264-AMB3R
2019-03-25 15:49:10 Klixz_-_Plastic_Rendezvous-(PIN_005)-SINGLE-WEB-2019-ZzZz
2019-03-25 15:53:14 Iron_Butterfly-In-A-Gadda-Da-Vida-(ATCO40022)-LP-FLAC-1968-BITOCUL
2019-03-25 15:53:56 Astor_Piazzolla-Piazzolla_Interpreta_A_Piazzolla-WEB-2012-ENRiCH
2019-03-25 16:00:46 Urban_Brainchild_-_305_Takeover-DAB-03-15-2019-TALiON
2019-03-25 16:12:47 The.Order.2001.MULTi.COMPLETE.BLURAY-OLDHAM
2019-03-25 16:13:45 Buying.and.Selling.S03E21.WEB.x264-LiGATE
2019-03-25 16:14:29 DiRT.Rally.2.0.Update.v1.2.1.incl.DLC-CODEX
2019-03-25 16:15:18 WickedPictures.Axel.Brauns.Short.Hair.Dont.Care.2.XXX.720p.MP4-KTR
2019-03-25 16:15:28 Buying.and.Selling.S03E22.WEB.x264-LiGATE
2019-03-25 16:17:02 Buying.and.Selling.S03E23.WEB.x264-LiGATE
2019-03-25 16:17:33 WickedPictures.Axel.Brauns.Short.Hair.Dont.Care.2.XXX.1080p.MP4-KTR
2019-03-25 16:20:54 Dynoro_and_Ina_Wroldsen_-_Obsessed-SINGLE-WEB-2019-ZzZz
2019-03-25 16:21:25 Buying.and.Selling.S03E24.WEB.x264-LiGATE
2019-03-25 16:24:53 ATKExotics.19.03.24.Liv.Revamped.Toys.XXX.1080p.MP4-KTR
2019-03-25 16:25:12 Bang.Dream.2nd.Season.E12.1080p.WEB.x264-URANiME
2019-03-25 16:25:18 Redfern.Now.S01E04.720p.WEB.h264-LiGATE
2019-03-25 16:26:03 ATKHairy.19.03.24.Nyx.Night.XXX.1080p.MP4-KTR
2019-03-25 16:26:13 Bang.Dream.2nd.Season.E12.720p.WEB.x264-URANiME
2019-03-25 16:26:36 Redfern.Now.S01E05.720p.WEB.h264-LiGATE
2019-03-25 16:27:12 AuntJudys.19.03.25.Skyler.Upskirt.Panty.Modeling.XXX.1080p.MP4-KTR
2019-03-25 16:27:14 Bang.Dream.2nd.Season.E12.WEB.x264-URANiME
2019-03-25 16:28:13 Bermuda.Triangle.Colorful.Pastorale.E11.1080p.WEB.x264-URANiME
2019-03-25 16:29:14 Bermuda.Triangle.Colorful.Pastorale.E11.720p.WEB.x264-URANiME
2019-03-25 16:30:14 Bermuda.Triangle.Colorful.Pastorale.E11.WEB.x264-URANiME
2019-03-25 16:31:16 Domestic.Girlfriend.E11.1080p.WEB.x264-URANiME
2019-03-25 16:32:17 Domestic.Girlfriend.E11.720p.WEB.x264-URANiME
2019-03-25 16:33:12 Holed.19.03.25.Marley.Brinx.Gaping.Anal.Bondage.XXX.1080p.MP4-KTR
2019-03-25 16:33:18 Domestic.Girlfriend.E11.WEB.x264-URANiME
2019-03-25 16:34:17 How.Clumsy.You.Are.Miss.Ueno.E12.1080p.WEB.x264-URANiME
2019-03-25 16:35:12 MilfHunter.19.03.25.Ryan.Keely.Slutty.Shopper.XXX.1080p.MP4-KTR
2019-03-25 16:35:17 How.Clumsy.You.Are.Miss.Ueno.E12.720p.WEB.x264-URANiME
2019-03-25 16:36:17 Wild.Ireland.S01E01.DVDRip.x264-GHOULS
2019-03-25 16:36:18 How.Clumsy.You.Are.Miss.Ueno.E12.WEB.x264-URANiME
2019-03-25 16:36:39 FemaleFakeTaxi.19.03.25.Cherry.Kiss.And.Marry.Morrgan.XXX.1080p.MP4-KTR
2019-03-25 16:36:46 Wild.Ireland.S01E02.DVDRip.x264-GHOULS
2019-03-25 16:37:00 Wild.Ireland.S01E03.DVDRip.x264-GHOULS
2019-03-25 16:37:04 Wild.Ireland.S01E04.DVDRip.x264-GHOULS
2019-03-25 16:37:18 Wz.E12.1080p.WEB.x264-URANiME
2019-03-25 16:37:45 Wild.Ireland.S01E05.DVDRip.x264-GHOULS
2019-03-25 16:37:51 Wild.Ireland.S01E06.DVDRip.x264-GHOULS
2019-03-25 16:38:00 Redfern.Now.S01E06.720p.WEB.h264-LiGATE
2019-03-25 16:38:19 Wz.E12.720p.WEB.x264-URANiME
2019-03-25 16:38:31 RKPrime.19.03.25.Katana.Kombat.Moist.Neon.Lights.XXX.1080p.MP4-KTR
2019-03-25 16:39:20 Wz.E12.WEB.x264-URANiME
2019-03-25 16:39:40 Redfern.Now.S02E01.720p.WEB.h264-LiGATE
2019-03-25 16:45:24 Black_Caviar_-_El_Camino-WEB-2019-ZzZz
2019-03-25 16:45:29 Holed.19.03.25.Marley.Brinx.Gaping.Anal.Bondage.XXX.2160p.MP4-KTR
2019-03-25 16:45:53 HP_Vince_-_Feel_So_Good-(CMS182)-SINGLE-WEB-2018-ZzZz
2019-03-25 16:46:06 Black.Lightning.S02E16.German.DL.1080p.WEB.x264-BiGiNT
2019-03-25 16:47:15 Black.Lightning.S02E16.German.DL.720p.WEB.x264-BiGiNT
2019-03-25 16:48:15 The.Car.Chasers.S02E08.WEB.x264-LiGATE
2019-03-25 16:48:22 Black.Lightning.S02E16.German.DL.WEB.x264-BiGiNT
2019-03-25 16:48:55 The.Car.Chasers.S02E09.WEB.x264-LiGATE
2019-03-25 16:49:28 The.Car.Chasers.S02E10.WEB.x264-LiGATE
2019-03-25 16:50:10 DaneJones.19.03.25.Lina.Mercury.XXX.1080p.MP4-KTR
2019-03-25 16:50:15 The.Car.Chasers.S02E11.WEB.x264-LiGATE
2019-03-25 16:50:47 The.Car.Chasers.S02E12.WEB.x264-LiGATE
2019-03-25 16:51:27 The.Car.Chasers.S02E13.WEB.x264-LiGATE
2019-03-25 16:52:16 The.Car.Chasers.S02E14.WEB.x264-LiGATE
2019-03-25 16:52:57 The.Car.Chasers.S02E15.WEB.x264-LiGATE
2019-03-25 16:54:42 The.Car.Chasers.S02E16.WEB.x264-LiGATE
2019-03-25 16:55:30 The.Car.Chasers.S03E01.WEB.x264-LiGATE
2019-03-25 16:55:59 Mozart.in.the.Jungle.S04E01.MULTi.1080p.WEB.H264-NERO
2019-03-25 16:56:05 The.Car.Chasers.S03E03.WEB.x264-LiGATE
2019-03-25 16:56:48 Ainsleys.Caribbean.Kitchen.S01E10.WEB.x264-LiGATE
2019-03-25 16:57:03 Mozart.in.the.Jungle.S04E02.MULTi.1080p.WEB.H264-NERO
2019-03-25 16:58:07 Mozart.in.the.Jungle.S04E03.MULTi.1080p.WEB.H264-NERO
2019-03-25 16:59:07 Wiwek_feat_Jacob_Armen_-_House_Of_Dreams-(MVH_007)-SINGLE-WEB-2019-ZzZz
2019-03-25 16:59:12 Mozart.in.the.Jungle.S04E04.MULTi.1080p.WEB.H264-NERO
2019-03-25 16:59:44 We_The_Revolution_v1.0.1-Razor1911
2019-03-25 17:00:17 Mozart.in.the.Jungle.S04E05.MULTi.1080p.WEB.H264-NERO
2019-03-25 17:01:01 Through.Abandoned.The.Refuge-DARKSiDERS
2019-03-25 17:01:20 Mozart.in.the.Jungle.S04E06.MULTi.1080p.WEB.H264-NERO
2019-03-25 17:01:21 We_The_Revolution_v1.2_Update_Linux-RazorDOX
2019-03-25 17:02:24 Mozart.in.the.Jungle.S04E07.MULTi.1080p.WEB.H264-NERO
2019-03-25 17:03:02 Paradise.Hotel.S11E09.NORWEGiAN.720p.WEB.H264-HENRETTELSE
2019-03-25 17:03:32 Mozart.in.the.Jungle.S04E08.MULTi.1080p.WEB.H264-NERO
2019-03-25 17:03:37 Paradise.Hotel.S11E09.NORWEGiAN.1080p.WEB.H264-HENRETTELSE
2019-03-25 17:04:31 Mozart.in.the.Jungle.S04E09.MULTi.1080p.WEB.H264-NERO
2019-03-25 17:04:36 Mr.Hockey.The.Gordie.Howe.Story.2013.COMPLETE.BLURAY-iTWASNTME
2019-03-25 17:05:36 Mozart.in.the.Jungle.S04E10.FiNAL.MULTi.1080p.WEB.H264-NERO
2019-03-25 17:06:10 We.Happy.Few.Update.v1.7.79954-CODEX
2019-03-25 17:06:20 Eternity.The.Last.Unicorn.Update.v1.02-CODEX
2019-03-25 17:09:38 Timmy_Trumpet_-_Oracle_(TNT_Remix)-SINGLE-WEB-2019-SRG
2019-03-25 17:09:47 Geck-O_-_The_Dance_Temple-(CATID043)-WEB-2019-SRG
2019-03-25 17:10:48 Der.Grinch.2018.German.DL.2160p.UHD.BluRay.x265-HDMEDiA
2019-03-25 17:16:35 VA-Progressive_Collection_Vol._11-(FM032LP)-WEB-2019-AFO
2019-03-25 17:17:51 21g-Bloom-WEB-FR-2019-OND
2019-03-25 17:17:58 Talking.Dead.S09E15.720p.WEB.h264-TBS
2019-03-25 17:18:12 Talking.Dead.S09E15.WEB.h264-TBS
2019-03-25 17:18:28 Coisa.Mais.Linda.S01E01.MULTi.1080p.WEB.x264-CARAPiLS
2019-03-25 17:18:55 Guizmo-Qui_Sera_Le_Prochain-SINGLE-WEB-FR-2019-OND
2019-03-25 17:19:29 Coisa.Mais.Linda.S01E02.MULTi.1080p.WEB.x264-CARAPiLS
2019-03-25 17:19:56 Kalam-Fiche_Hess-WEB-FR-2019-OND
2019-03-25 17:20:13 Talking.Dead.S09E15.1080p.WEB.h264-TBS
2019-03-25 17:20:57 LeAch-Le_Royaume_Des_Sourd-WEB-FR-2019-OND
2019-03-25 17:21:59 Lobo_EL-Lobotomie_(Vol_II)-WEB-FR-2019-OND
2019-03-25 17:22:13 InfernalRestraints.19.03.22.Luna.Rival.XXX.720p.MP4-MiSTRESS
2019-03-25 17:23:01 Aalens.Nye.Rige.E01.DANISH.720p.WEB.h264-FFD
2019-03-25 17:23:02 Virus_One-Kriminel-WEB-FR-2019-OND
2019-03-25 17:23:55 Prou_-_Strain-(OBM_695)-SINGLE-WEB-2018-ZzZz
2019-03-25 17:23:57 Maltese-Il.Romanzo.Del.Commissario.S01E04.iTALiAN.HDTV.x264-RADiOACTiVE
2019-03-25 17:24:07 Maltese-Il.Romanzo.Del.Commissario.S01E04.iTALiAN.720p.HDTV.x264-RADiOACTiVE
2019-03-25 17:24:12 Aalens.Nye.Rige.E02.DANISH.720p.WEB.h264-FFD
2019-03-25 17:25:27 Aalens.Nye.Rige.E03.DANISH.720p.WEB.h264-FFD
2019-03-25 17:26:35 Aalens.Nye.Rige.E04.DANISH.720p.WEB.h264-FFD
2019-03-25 17:27:36 Boernene.Fra.Sorggruppen.S01E01.DANISH.720p.WEB.h264-FFD
2019-03-25 17:28:58 Messenger.of.Death.1988.MULTi.COMPLETE.BLURAY-OLDHAM
2019-03-25 17:35:16 Laegen.Flytter.Ind.S05E02.DANISH.720p.WEB.h264-FFD
2019-03-25 17:38:03 Coisa.Mais.Linda.S01E03.MULTi.1080p.WEB.x264-CARAPiLS
2019-03-25 17:38:32 Im.Rennstall.ist.das.Zebra.los.2005.GERMAN.DL.1080p.HDTV.x264-TVARCHiV
2019-03-25 17:39:05 Coisa.Mais.Linda.S01E04.MULTi.1080p.WEB.x264-CARAPiLS
2019-03-25 17:40:07 Coisa.Mais.Linda.S01E05.MULTi.1080p.WEB.x264-CARAPiLS
2019-03-25 17:41:11 Coisa.Mais.Linda.S01E06.MULTi.1080p.WEB.x264-CARAPiLS
2019-03-25 17:42:14 Coisa.Mais.Linda.S01E07.FiNAL.MULTi.1080p.WEB.x264-CARAPiLS
2019-03-25 17:49:14 Activa_and_Simon_Bostock-Contour_(Extended_Mix)-(RGEN001)-SINGLE-WEB-2019-AFO
2019-03-25 17:59:20 4-Stjerners.Middag.S11E45.NORWEGiAN.720p.WEB.x264-NORPiLT
2019-03-25 18:04:54 Chantal_-_Fuck_It_All-(AWD_395490)-SINGLE-WEB-2017-ZzZz
2019-03-25 18:04:59 Plamena_-_Bye_Bye-(361593_7954851)-SINGLE-WEB-2019-ZzZz
2019-03-25 18:06:23 Shakespeare.And.Hathaway.Private.Investigators.S02E10.1080p.BluRay.x264-BEDLAM
2019-03-25 18:09:10 Caius_feat_Neigh_-_Your_Love-(190295458140)-WEB-2019-ZzZz
2019-03-25 18:14:20 Aknoyd-No_Label-WEB-2019-FALCON
2019-03-25 18:14:39 Altruism-Dreamers_Of_Dreams_Cymatic_Remix-SINGLE-WEB-2019-FALCON
2019-03-25 18:15:02 Bionix-Spiritual_Mode-SINGLE-WEB-2019-FALCON
2019-03-25 18:15:07 Samplesound.Minimalism.Vol.2.WAV-MASCHiNE
2019-03-25 18:15:22 Cimi-New_Synthesis-WEB-2019-FALCON
2019-03-25 18:15:45 Complicated-Pieces-SINGLE-WEB-2019-FALCON
2019-03-25 18:16:06 Dripping_Purple-Nature_Is_Watching-WEB-2019-FALCON
2019-03-25 18:16:07 Ambulansen.S01E12.NORWEGiAN.720p.HDTV.x264-NORPiLT
2019-03-25 18:16:27 Gluck-The_Man_Of_The_Moment-SINGLE-WEB-2019-FALCON
2019-03-25 18:16:48 Hizaq-Zero_Gravity-SINGLE-WEB-2019-FALCON
2019-03-25 18:17:10 Hyriderz-Limitless-SINGLE-WEB-2019-FALCON
2019-03-25 18:17:32 Ilai-Imagination-SINGLE-WEB-2019-FALCON
2019-03-25 18:17:53 Ital_And_Twelve_Sessions-Life_Changes-WEB-2019-FALCON
2019-03-25 18:18:15 Majide_And_DJ_Taku-Psychedelic_Porsche-WEB-2019-FALCON
2019-03-25 18:18:37 Mandala_And_Hypnocoustics-Music_Is_The_Heart-SINGLE-WEB-2019-FALCON
2019-03-25 18:18:58 Manmachine-Psychedelic_Cult-SINGLE-WEB-2019-FALCON
2019-03-25 18:19:42 Nacim_Ladj-Black_Wood-SINGLE-WEB-2019-FALCON
2019-03-25 18:20:03 No_Cliu-Khromata_Nights-SINGLE-WEB-2019-FALCON
2019-03-25 18:20:26 Norma_Project-Reborn-SINGLE-WEB-2019-FALCON
2019-03-25 18:20:48 One_Function-Back_To_My_Roots_Hinap_Remix-SINGLE-WEB-2019-FALCON
2019-03-25 18:21:08 Physis-Magnetic_Energy-SINGLE-WEB-2019-FALCON
2019-03-25 18:21:29 Resonance-Mahapralaya-WEB-2019-FALCON
2019-03-25 18:21:36 Im.Rennstall.ist.das.Zebra.los.2005.GERMAN.DL.720p.HDTV.x264.iNTERNAL-TVARCHiV
2019-03-25 18:21:52 Ritmo_Feat._Ortal_Pelleg-Gira-SINGLE-WEB-2019-FALCON
2019-03-25 18:22:14 Space_Travel-Genetically_Modified-WEB-2019-FALCON
2019-03-25 18:22:36 Static_Movement-No_Time-SINGLE-WEB-2019-FALCON
2019-03-25 18:22:57 Technology_And_Twelve_Sessions-Symbiosis-WEB-2019-FALCON
2019-03-25 18:23:02 Robinson.Granslandet.S18E05.SWEDiSH.720p.WEB.X264-EXECUTION
2019-03-25 18:23:16 Robinson.Granslandet.S18E05.SWEDiSH.1080p.WEB.X264-EXECUTION
2019-03-25 18:23:22 Triceradrops-Disposable_Harmony-WEB-2019-FALCON
2019-03-25 18:23:47 Engineering.Samples.Purple.Disco.WAV-MASCHiNE
2019-03-25 18:26:19 UFC.Fight.Night.148.Prelims.HDTV.x264-VERUM
2019-03-25 18:29:24 Roger-M_-_Livin_My_Best_Life-(EDMA_038)-WEB-2019-ZzZz
2019-03-25 18:29:31 Im.Rennstall.ist.das.Zebra.los.2005.GERMAN.DL.HDTVRip.x264.iNTERNAL-TVARCHiV
2019-03-25 18:29:38 The.Best.Thing.I.Ever.Ate.S09E13.The.Closers.WEBRip.x264-KOMPOST
2019-03-25 18:29:55 The.Best.Thing.I.Ever.Ate.S09E13.The.Closers.720p.WEBRip.x264-KOMPOST
2019-03-25 18:30:20 UFC.Fight.Night.148.Prelims.720p.HDTV.x264-VERUM
2019-03-25 18:34:04 Rain.Man.1988.SPANiSH.BDRip.x264-TORO
2019-03-25 18:34:23 Rain.Man.1988.SPANiSH.MULTi.720p.BluRay.x264-TORO
2019-03-25 18:34:59 Law.and.Order.New.York.S09E13.Verdorben.German.DL.1080p.HDTV.x264-ATAX
2019-03-25 18:35:44 Seb_Stifler_and_Jasmine_KT_-_Im_Lost-(FS_435)-SINGLE-WEB-2019-ZzZz
2019-03-25 18:36:22 Thank.You.Goodnight.S02E01.WEB.x264-CookieMonster
2019-03-25 18:36:49 Thank.You.Goodnight.S02E01.720p.WEB.x264-CookieMonster
2019-03-25 18:37:09 Thank.You.Goodnight.S02E01.1080p.WEB.x264-CookieMonster
2019-03-25 18:37:16 Rain.Man.1988.SPANiSH.MULTi.1080p.BluRay.x264-TORO
2019-03-25 18:37:23 Thank.You.Goodnight.S02E02.WEB.x264-CookieMonster
2019-03-25 18:37:33 Thank.You.Goodnight.S02E03.WEB.x264-CookieMonster
2019-03-25 18:37:41 Thank.You.Goodnight.S02E02.720p.WEB.x264-CookieMonster
2019-03-25 18:37:52 Thank.You.Goodnight.S02E02.1080p.WEB.x264-CookieMonster
2019-03-25 18:37:58 UFC.Fight.Night.148.Prelims.1080p.HDTV.x264-VERUM
2019-03-25 18:39:59 Flagman.Turbo.House.WAV-MASCHiNE
2019-03-25 18:40:46 Ento_and_Velto_-_Beyond_Time-(CN_15)-SINGLE-WEB-2019-ZzZz
2019-03-25 18:47:20 Vixen.19.03.25.Evelin.Stone.And.Kristen.Scott.XXX.1080p.MP4-KTR
2019-03-25 18:48:05 Law.and.Order.New.York.S09E13.Verdorben.German.DL.720p.HDTV.x264.iNTERNAL-ATAX
2019-03-25 18:49:54 MC_Freeflow_-_Like_Fire-(YMR_129)-WEB-2019-ZzZz
2019-03-25 18:50:16 MC_Freeflow_-_Man_Of_The_House-(YMR_130)-WEB-2019-ZzZz
2019-03-25 18:50:34 TushyRaw.19.03.25.Riley.Steele.XXX.1080p.MP4-KTR
2019-03-25 18:50:40 J_Harmony-J_Harmony_(The_Original)-WEB-2009-AZF
2019-03-25 18:54:27 Law.and.Order.New.York.S09E13.Verdorben.German.DL.HDTVRip.x264.iNTERNAL-ATAX
2019-03-25 18:55:50 Rocket.League.MLB.Fan.Pack.DLC-PLAZA
2019-03-25 18:56:14 Truberbrook.Update.1.15-CODEX
2019-03-25 18:58:00 SugarDaddyPORN.19.03.25.Michelle.Hanger.Couldnt.Wait.To.Get.Fucked.Again.XXX.1080p.MP4-KTR
2019-03-25 18:59:13 DateSlam.19.03.25.Alexa.Big.Tits.Blonde.Fucks.On.First.Date.XXX.1080p.MP4-KTR
2019-03-25 18:59:16 The.Secret.Life.of.Pets.2016.MULTi.COMPLETE.BLURAY-GLiMMER
2019-03-25 19:00:54 Andy_Craig_-_True_Faith-(SHIVA_044)-WEB-2019-ZzZz
2019-03-25 19:01:50 Vixen.19.03.25.Evelin.Stone.And.Kristen.Scott.XXX.2160p.MP4-KTR
2019-03-25 19:04:11 Dj_Aptekar_and_Kation_-_On_Scooter-(MC_047)-SINGLE-WEB-2019-ZzZz
2019-03-25 19:04:46 TushyRaw.19.03.25.Riley.Steele.XXX.2160p.MP4-KTR
2019-03-25 19:07:23 Durante.La.Tormenta.2018.SPANiSH.WEBRip.X264-iBERiCO
2019-03-25 19:07:24 VA-Soulful_Vibes_Vol_1_2019-(HSR187)-WEB-2019-BF
2019-03-25 19:08:58 PornFidelity.E787.Adira.Allure.Synchronicity.XXX.1080p.MP4-KTR
2019-03-25 19:10:44 Jm_Harmony-Gold-WEB-FR-2013-AZF
2019-03-25 19:12:25 PornFidelity.E787.Adira.Allure.Synchronicity.XXX.2160p.MP4-KTR
2019-03-25 19:12:45 Durante.La.Tormenta.2018.SPANiSH.MULTi.720p.WEBRip.X264-iBERiCO
2019-03-25 19:13:23 VA-Let_There_Be_House_Miami-(LTBHA013)-WEB-2019-BF
2019-03-25 19:13:35 Faruk_Aslan_-_Deepshine-(C_2R003DS)-WEB-2019-ZzZz
2019-03-25 19:14:39 Durante.La.Tormenta.2018.SPANiSH.MULTi.1080p.WEBRip.X264-iBERiCO
2019-03-25 19:21:39 Kristof_Tigran_and_Cysco_Fiore_feat_Browser_AL_and_Gabsy_-_Friday_Night-(CAD_016)-WEB-2019-ZzZz
2019-03-25 19:22:31 Alaskan.Bush.People.S09E04.Mountain.Emergency.720p.HDTV.x264-W4F
2019-03-25 19:22:37 Alaskan.Bush.People.S09E04.Mountain.Emergency.HDTV.x264-W4F
2019-03-25 19:24:09 Willene_B_-_Paradigm-(505903_3387461)-SINGLE-WEB-2019-ZzZz
2019-03-25 19:26:07 Toby_Screamer_-_4U-(406179_8227624)-SINGLE-WEB-2019-ZzZz
2019-03-25 19:27:21 Paul_Sawyer_and_David_Ricardo_and_Redux_Saints_and_Giapan_Ft._Vanessa_Maria-Free_Inside-(EJU200)-WEB-2019-AFO_INT
2019-03-25 19:27:24 VA-Spring_Sampler_2019-(3AV147)-WEB-2019-AFO_INT
2019-03-25 19:27:31 Cid_Inc.-Via_Karelia-(RPLG065)-WEB-2019-AFO_INT
2019-03-25 19:27:38 Kastis_Torrau-Revolve__Rotate_EP-(BF216)-WEB-2019-AFO_INT
2019-03-25 19:27:40 Matt_Rowan-Less_than_Subtle-(BALKAN0552)-WEB-2019-AFO_INT
2019-03-25 19:27:48 Madloch_and_Subnode-Lions_Mane-(SA100)-WEB-2019-AFO_INT
2019-03-25 19:27:54 Matias_Chilano-Hypertrophy-(MOVD0179)-WEB-2019-AFO_INT
2019-03-25 19:28:00 Michael_A-Expand_Your_World-(GNSYS070)-WEB-2019-AFO_INT
2019-03-25 19:28:02 Mlinar-Farewell_to_the_Moon-(MHR310)-WEB-2019-AFO_INT
2019-03-25 19:28:10 Sebastian_Sellares-Epiphany_in_the_Woods-(OTS026)-WEB-2019-AFO_INT
2019-03-25 19:28:16 Banana_Cat-Derecho-(PHM007)-WEB-2019-AFO_INT
2019-03-25 19:28:18 Ricardo_Piedra-Enceladus-(BC2250)-WEB-2019-AFO_INT
2019-03-25 19:28:22 VA-Beatfreak_Miami_2019-(FMTCD039)-WEB-2019-AFO_INT
2019-03-25 19:28:25 Luciano_Scheffer-Baj-(ETREE318)-WEB-2019-AFO_INT
2019-03-25 19:28:32 Rick_Pier_Oneil-Atlantis-(RRC115)-WEB-2019-AFO_INT
2019-03-25 19:29:46 Landgang.S07E05.SWEDiSH.720p.WEB.h264-SweWR
2019-03-25 19:30:08 Safe.Software.FME.Desktop.v2019.0.0.0.19231.UBUNTU.16.LINUX.X64.BETA.Incl.Keygen-AMPED
2019-03-25 19:31:10 Carnao_Beats_-_Chords_For_Life_(2019_Mix)-(ARR_0139)-SINGLE-WEB-2019-ZzZz
2019-03-25 19:32:24 Safe.Software.FME.Desktop.v2019.0.0.0.19233.BETA.Incl.Keygen-AMPED
2019-03-25 19:32:37 Landgang.S07E06.SWEDiSH.720p.WEB.h264-SweWR
2019-03-25 19:33:24 Landgang.S07E07.SWEDiSH.720p.WEB.h264-SweWR
2019-03-25 19:33:31 Blue.Bloods.Crime.Scene.New.York.S01E07.Der.Koenig.ist.tot.German.1080p.HDTV.x264-ATAX
2019-03-25 19:33:50 Martech_feat_Aimi_D_-_New_Life-(CAT_291131)-WEB-2019-ZzZz
2019-03-25 19:35:24 Safe.Software.FME.Desktop.v2019.0.0.0.19233.LINUX.DEBIAN.X64.BETA.Incl.Keygen-AMPED
2019-03-25 19:35:54 David_Et_Corine-Ke_An_Mwen_An_Balad-WEB-FR-2011-AZF
2019-03-25 19:37:37 Private.Gold.109.The.Prime.Ministers.Sex.Tape.XXX.720p.WEBRip.MP4-VSEX
2019-03-25 19:38:22 DJ_QUASH_Ruben_Rollheiser_-_Do_You_Like_It_(Original_Mix)-(IM_0101)-SINGLE-WEB-2019-ZzZz
2019-03-25 19:40:30 Safe.Software.FME.Desktop.v2019.0.0.0.19233.MACOSX.BETA.Incl.Keygen-AMPED
2019-03-25 19:40:50 Moguai_And_Luciana_-_Faith-SINGLE-WEB-2019-FMC
2019-03-25 19:41:00 Guys.Ranch.Kitchen.S02E13.Meze.Fete.720p.WEBRip.x264-CAFFEiNE
2019-03-25 19:41:34 Private.Gold.109.The.Prime.Ministers.Sex.Tape.XXX.1080p.WEBRip.MP4-VSEX
2019-03-25 19:41:49 Breger--Cup_Of_Joy_EP-(COPY026)-WEB-2019-SHELTER
2019-03-25 19:42:43 Safe.Software.FME.Desktop.v2019.0.0.0.19233.REDHAT.7.LINUX.X64.BETA.Incl.Keygen-AMPED
2019-03-25 19:44:28 Safe.Software.FME.Desktop.v2019.0.0.0.19233.UBUNTU.18.LINUX.X64.BETA.Incl.Keygen-AMPED
2019-03-25 19:44:34 Guys.Ranch.Kitchen.S02E13.Meze.Fete.WEBRip.x264-CAFFEiNE
2019-03-25 19:45:34 POV.Mania.2016.XXX.720p.WEBRip.MP4-VSEX
2019-03-25 19:46:08 Safe.Software.FME.Desktop.v2019.0.0.0.19233.X64.BETA.Incl.Keygen-AMPED
2019-03-25 19:49:36 POV.Mania.2016.XXX.1080p.WEBRip.MP4-VSEX
2019-03-25 19:50:57 Tuneblasterz_and_Makrolon_-_Lonelyness_(Remixes)-(TUNEBLASTERZ_192)-WEB-2019-ZzZz_INT
2019-03-25 19:53:12 Evan.Goes.Wild.S01E05.Slender.Loris.Chorus.720p.HDTV.x264-W4F
2019-03-25 19:53:17 Evan.Goes.Wild.S01E05.Slender.Loris.Chorus.HDTV.x264-W4F
2019-03-25 19:53:34 Desperate.Black.Mothers.XXX.720p.WEBRip.MP4-VSEX
2019-03-25 19:53:40 Svengoolie.On.Me-TV.S09E04.Strait-Jacket.DSR.x264-W4F
2019-03-25 19:53:45 VA-Best_of_Zouk_Vol_1-WEB-FR-1992-AZF
2019-03-25 19:55:07 Goncalo_M-System_Failure-(IRPT_148)-SINGLE-WEB-2019-BB8
2019-03-25 19:56:43 Sommerhytta.S03E09.NORWEGiAN.720p.HDTV.x264-NORPiLT
2019-03-25 19:57:33 Desperate.Black.Mothers.XXX.1080p.WEBRip.MP4-VSEX
2019-03-25 19:57:56 Dangerous_feat_Marvelouz_-_Keep_The_Fire-(DPRM_1909)-WEB-2019-ZzZz
2019-03-25 20:00:03 To_Viana_-_Lepaskan_(Radio_Mix)-(TGCS_162)-SINGLE-WEB-2019-ZzZz
2019-03-25 20:00:35 Roccos.Intimate.Castings.26.XXX.DVDRip.x264-HORNDOGS
2019-03-25 20:00:53 VA-Glasgow_Underground_Miami_2019-(GU394Z)-WEB-2019-BF
2019-03-25 20:02:20 Sodertaljepolisen.S02E08.SWEDiSH.720p.WEB.X264-EXECUTION
2019-03-25 20:02:26 MrSM-Ken-SINGLE-WEB-FR-2019-AZF
2019-03-25 20:03:19 Sodertaljepolisen.S02E08.SWEDiSH.1080p.WEB.X264-EXECUTION
2019-03-25 20:03:26 Farmen.VIP.S02E03.SWEDiSH.720p.WEB.X264-EXECUTION
2019-03-25 20:04:30 Farmen.VIP.S02E03.SWEDiSH.1080p.WEB.X264-EXECUTION
2019-03-25 20:06:19 OMGape.DiSC1.XXX.DVDRip.x264-HORNDOGS
2019-03-25 20:08:43 Harvey_Sutherland_feat_Jace_XL-Something_In_The_Water-SINGLE-(CRC04S1)-WEB-2019-ENSLAVE
2019-03-25 20:08:44 Blue.Bloods.Crime.Scene.New.York.S01E08.Die.Babies.von.Chinatown.German.1080p.HDTV.x264-ATAX
2019-03-25 20:09:00 Reedale_Rise-The_Searching-(PROS003)-Vinyl-2019-DPS
2019-03-25 20:09:11 We.Swing.Both.Ways.3.XXX.iNTERNAL.720p.WEBRiP.MP4-GUSH
2019-03-25 20:09:16 Hemliga.Beundrare.S03E01.SWEDiSH.720p.WEB.H264-EXECUTION
2019-03-25 20:09:59 Hemliga.Beundrare.S03E01.SWEDiSH.1080p.WEB.H264-EXECUTION
2019-03-25 20:10:05 Maine.Cabin.Masters.S03E16.The.Dixie.Dog.Den.1080p.WEB.x264-CAFFEiNE
2019-03-25 20:10:16 Sosamann-Who_I_Am_(Feat_NBA_Youngboy)-SINGLE-WEB-2019-AZF
2019-03-25 20:10:23 Sam_Feldt_-_Heartfeldt_Radio_168-CABLE-03-23-2019-TALiON
2019-03-25 20:11:08 Melvo_Baptiste_-_Glitterbox_Radio_103-CABLE-03-24-2019-TALiON
2019-03-25 20:11:30 The.Jonathan.Ross.Show.S14E04.WEB.x264-KOMPOST
2019-03-25 20:11:40 Ultimate_Xperience-The_Realm_Of_A_New_Dawn-2CD-2019-UPE
2019-03-25 20:12:09 Yves_V_-_V_Sessions_196-CABLE-03-24-2019-TALiON
2019-03-25 20:12:13 Maine.Cabin.Masters.S03E16.The.Dixie.Dog.Den.720p.WEB.x264-CAFFEiNE
2019-03-25 20:12:45 Supernatural.S14E16.SUBFRENCH.1080p.HDTV.x264-HYBRiS
2019-03-25 20:13:01 OMGape.DiSC2.XXX.DVDRip.x264-HORNDOGS
2019-03-25 20:13:16 Chris_Liebing_-_AM.FM_211__Live_at_Kompass_(Gent)-SAT-03-24-2019-TALiON
2019-03-25 20:14:06 Maxim_Tonic_-_Lolly_La_La_(Seven_Pike_Remix)-(ETILL_006)-SINGLE-WEB-2019-ZzZz
2019-03-25 20:14:25 Mark_Brown_-_Cr2_Live_and_Direct_417-SAT-03-24-2019-TALiON
2019-03-25 20:14:26 Maine.Cabin.Masters.S03E16.The.Dixie.Dog.Den.WEB.x264-CAFFEiNE
2019-03-25 20:15:22 Stefano_Noferini_-_Club_Edition_338-SAT-03-24-2019-TALiON
2019-03-25 20:15:46 Ozkar_Lugarel_and_Rafael_Dutra_-_Lets_Make_Love_(Remixes_Pt_1)-(QHM_340)-WEB-2019-ZzZz
2019-03-25 20:16:09 Anja_Schneider_-_Club_Room_047-SAT-03-25-2019-TALiON
2019-03-25 20:17:07 Robbie_Rivera_-_The_Juicy_Radio_Show_727-SAT-03-25-2019-TALiON
2019-03-25 20:17:40 Up.My.Ass.3.DiSC1.XXX.DVDRip.x264-WOP
2019-03-25 20:17:43 Lil_Zay-Better_Days-SINGLE-WEB-2019-AZF
2019-03-25 20:17:52 Young_Montana_Baby-Back_2_Da_Baby-WEB-2019-AZF
2019-03-25 20:18:10 Alan_Fitzpatrick_-_We_Are_The_Brave_048-SAT-03-25-2019-TALiON
2019-03-25 20:18:52 Up.My.Ass.3.DiSC2.XXX.DVDRip.x264-WOP
2019-03-25 20:19:07 Fedde_le_Grand_-_Dark_Light_Sessions_344-SAT-03-25-2019-TALiON
2019-03-25 20:20:00 Admiral_Freebee_-_A_Duet_For_One-2017-DDS
2019-03-25 20:20:14 Paul_Oakenfold_-_Planet_Perfecto_438-SAT-03-25-2019-TALiON
2019-03-25 20:20:31 Masterchef.S05E33.DANiSH.720p.HDTV.x264-RCDiVX
2019-03-25 20:22:40 Butthole.Whores.7.DiSC1.XXX.DVDRip.x264-HORNDOGS
2019-03-25 20:23:41 Reindroemmen.S01E04.NORWEGiAN.720p.HDTV.x264-TvNORGE
2019-03-25 20:25:00 Total.Dreamer.S01E30.GERMAN.1080p.HDTV.x264-REQiT
2019-03-25 20:25:47 Total.Dreamer.S01E30.GERMAN.720p.HDTV.x264-REQiT
2019-03-25 20:25:50 Masterchef.S05E33.DANiSH.HDTV.x264-RCDiVX
2019-03-25 20:26:46 Total.Dreamer.S01E30.GERMAN.HDTV.x264-REQiT
2019-03-25 20:28:17 Butthole.Whores.7.DiSC2.XXX.DVDRip.x264-HORNDOGS
2019-03-25 20:30:21 4-Stjerners.Middag.S11E45.NORWEGiAN.720p.HDTV.x264-TvNORGE
2019-03-25 20:32:25 Camp.Kulinaris.S02E26.NORWEGiAN.720p.WEB.H264-HENRETTELSE
2019-03-25 20:32:51 We_The_Revolution_v1.0.2_Update-RazorDOX
2019-03-25 20:33:12 Camp.Kulinaris.S02E26.NORWEGiAN.1080p.WEB.H264-HENRETTELSE
2019-03-25 20:37:46 Magic_Box_-_If_You-WEB-2010-iDC
2019-03-25 20:38:34 The.Student.XXX.720p.WEBRip.MP4-VSEX
2019-03-25 20:38:56 Reelow-Motherfocker-(SGRAW_015)-SINGLE-WEB-2019-BB8
2019-03-25 20:41:16 Fates_Warning-Awaken_The_Guardian_Live-2CD-FLAC-2017-CATARACT
2019-03-25 20:42:23 White_Death-White_Death-CD-FLAC-2017-CATARACT
2019-03-25 20:42:32 The.Student.XXX.1080p.WEBRip.MP4-VSEX
2019-03-25 20:42:54 Scientific.Toolworks.Understand.v5.1.981.Incl.Keygen-AMPED
2019-03-25 20:43:32 Scientific.Toolworks.Understand.v5.1.981.LINUX.X64-AMPED
2019-03-25 20:43:57 2018_DJ_Grime-Psycho_(Tribute_to_Post_Malone_and_Ty_Dolla_sign)-WEB-2018-AZF
2019-03-25 20:44:04 Scientific.Toolworks.Understand.v5.1.981.MACOSX-AMPED
2019-03-25 20:44:12 YG_Rob_and_7_FN-Way_Up-SINGLE-WEB-2019-AZF
2019-03-25 20:44:36 Scientific.Toolworks.Understand.v5.1.981.X64.Incl.Keygen-AMPED
2019-03-25 20:45:34 Tracks.2019.03.23.FRENCH.720p.HDTV.x264-SKCART
2019-03-25 20:46:32 Pussy.Bitches.XXX.720p.WEBRip.MP4-VSEX
2019-03-25 20:46:49 Strezov.Sampling.Rhodope.2.Ethnic.Bulgarian.Choir.KONTAKT-MASCHiNE
2019-03-25 20:47:56 Billions.S04E02.SPANiSH.1080p.HDTV.x264-FCC
2019-03-25 20:48:17 Billions.S04E02.SPANiSH.720p.HDTV.x264-FCC
2019-03-25 20:48:35 Billions.S04E02.SPANiSH.HDTV.x264-FCC
2019-03-25 20:50:33 Pussy.Bitches.XXX.1080p.WEBRip.MP4-VSEX
2019-03-25 20:52:43 Camp.Kulinaris.S02E25.NORWEGiAN.720p.WEB.h264-KOMPOST
2019-03-25 20:53:31 Kjendis.Soker.Kjaereste.S01E06.NORWEGiAN.720p.WEB.H264-HENRETTELSE
2019-03-25 20:53:48 Quigley.der.Australier.German.REMASTERED.1990.AC3.BDRip.x264-SPiCY
2019-03-25 20:54:32 Bring.Em.Young.3.XXX.720p.WEBRip.MP4-VSEX
2019-03-25 20:55:57 Kjendis.Soeker.Kjaereste.S01E05.NORWEGiAN.720p.HDTV.x264-NORPiLT
2019-03-25 20:56:24 Unklevon-Resist_Army-EP-(FLASH198)-WEB-2018-ENTANGLE
2019-03-25 20:56:49 Norge.Naa.S03E37.NORWEGiAN.720p.HDTV.x264-TvNORGE
2019-03-25 20:58:32 Bring.Em.Young.3.XXX.1080p.WEBRip.MP4-VSEX
2019-03-25 20:59:36 The.Worst.Witch.2017.S03E12-E13.720p.HDTV.X264-CREED
2019-03-25 20:59:49 Quigley.der.Australier.1990.German.720p.BluRay.x264-SPiCY
2019-03-25 21:00:18 Just.for.Laughs.All.Access.S06E04.720p.HDTV.x264-aAF
2019-03-25 21:01:15 Capital.Internet.Menace.L.Hypermarche.Contre-Attaque.DOC.FRENCH.HDTV.x264-SH0W
2019-03-25 21:01:19 David_Rodigan-BBC1Xtra-SAT-03-24-2019-YARD
2019-03-25 21:01:28 Capital.Internet.Menace.L.Hypermarche.Contre-Attaque.DOC.FRENCH.720p.HDTV.x264-SH0W
2019-03-25 21:01:38 Capital.Internet.Menace.L.Hypermarche.Contre-Attaque.iNTERNAL.DOC.FRENCH.1080p.HDTV.H264-SH0W
2019-03-25 21:01:55 Enquete.Exclusive.San.Francisco.La.Capitale.Du.Monde.De.Demain.DOC.FRENCH.HDTV.x264-SH0W
2019-03-25 21:02:00 Enquete.Exclusive.San.Francisco.La.Capitale.Du.Monde.De.Demain.DOC.FRENCH.720p.HDTV.x264-SH0W
2019-03-25 21:02:12 Enquete.Exclusive.San.Francisco.La.Capitale.Du.Monde.De.Demain.iNTERNAL.DOC.FRENCH.1080p.HDTV.H264-SH0W
2019-03-25 21:02:18 Enquete.Exclusive.Californie.La.French.Connection.Du.Cannabis.iNTERNAL.DOC.FRENCH.1080p.HDTV.H264-SH0W
2019-03-25 21:02:56 Just.for.Laughs.All.Access.S06E05.720p.HDTV.x264-aAF
2019-03-25 21:04:10 Just.for.Laughs.All.Access.S06E04.HDTV.x264-aAF
2019-03-25 21:05:16 Just.for.Laughs.All.Access.S06E05.HDTV.x264-aAF
2019-03-25 21:06:10 Hysens.S02E08.SWEDiSH.720p.WEB.X264-EXECUTION
2019-03-25 21:06:21 Blue.Bloods.Crime.Scene.New.York.S01E09.Rachetraeume.German.1080p.HDTV.x264-ATAX
2019-03-25 21:06:39 Mr.Hockey.The.Gordie.Howe.Story.2013.GERMAN.DL.1080p.BluRay.AVC-iTSMEMARiO
2019-03-25 21:07:22 Hysens.S02E08.SWEDiSH.1080p.WEB.X264-EXECUTION
2019-03-25 21:07:31 Secret_Anal_Terrorist-Fucking_Zoo-WEB-2018-CBR
2019-03-25 21:15:37 Redzone_feat_New_Shoes_-_Saturday_Night_Fever-(PA_048)-WEB-2019-ZzZz
2019-03-25 21:20:11 Costel_Van_Dein_-_Drop_That-(735119_067391)-SINGLE-WEB-2019-ZzZz
2019-03-25 21:20:56 Total.Dreamer.S01E31.GERMAN.1080p.HDTV.x264-REQiT
2019-03-25 21:21:56 Total.Dreamer.S01E31.GERMAN.720p.HDTV.x264-REQiT
2019-03-25 21:22:21 Quigley.der.Australier.1990.German.DL.1080p.BluRay.x264-SPiCY
2019-03-25 21:22:35 Total.Dreamer.S01E31.GERMAN.HDTV.x264-REQiT
2019-03-25 21:23:47 Oak.Island.Fluch.und.Legende.S06E06.Tunnel-Labyrinth.GERMAN.DOKU.720p.HDTV.x264-RiO
2019-03-25 21:24:36 Oak.Island.Fluch.und.Legende.S06E06.Tunnel-Labyrinth.GERMAN.DOKU.HDTV.x264-RiO
2019-03-25 21:27:38 Le.Retour.Des.Armes.Nucleaires.2018.DOC.FRENCH.WEB.H264-SLiP
2019-03-25 21:28:17 Mirage.2018.iNTERNAL.MULTi.1080p.WEB.x264-CARAPiLS
2019-03-25 21:29:12 Big.Butt.Anal.Sluts.DiSC1.XXX.DVDRip.x264-WOP
2019-03-25 21:31:11 Camp.Kulinaris.S02E25.NORWEGiAN.720p.HDTV.x264-TvNORGE
2019-03-25 21:34:02 Juan_Di_Lago_-_Right_and_Deeper-(1F_029)-SINGLE-WEB-2019-ZzZz
2019-03-25 21:35:58 JusBlow-Gang_Bangin_(feat_Memo_600)-SINGLE-WEB-2019-AZF
2019-03-25 21:36:23 St.Agatha.2018.1080p.BluRay.DD5.1.x264-iFT
2019-03-25 21:37:12 Le.Retour.Des.Armes.Nucleaires.2018.DOC.FRENCH.720p.WEB.H264-SLiP
2019-03-25 21:40:27 Fixon_And_DJ_Saint_Pierre_And_DJ_Surgeles-No_Boundaries_Two-WEB-2019-WAV
2019-03-25 21:49:32 Gidseltagningen.S02E01.DANiSH.720p.HDTV.x264-DiViSiON
2019-03-25 21:52:06 Paranormal.911.S01E04.Paranormal.Prisoner.720p.WEBRip.x264-CAFFEiNE
2019-03-25 21:52:10 FutileStruggles.A.Tight.Box.Hogtie.For.Ariel-Part.2.XXX.720p.MP4-hUSHhUSH
2019-03-25 21:53:29 FutileStruggles.Adara.The.Bad.Roommate-Part.2.XXX.720p.MP4-hUSHhUSH
2019-03-25 21:54:27 Paranormal.911.S01E04.Paranormal.Prisoner.WEBRip.x264-CAFFEiNE
2019-03-25 21:54:43 FutileStruggles.Fun.Turns.Into.Punishment.For.Adara-Part.2.XXX.720p.MP4-hUSHhUSH
2019-03-25 21:56:00 RestrainedElegance.2019.03.23.Rachelle.Summers.Bohemian.Chick.To.Sex.Slave.XXX.1080p.MP4-hUSHhUSH
2019-03-25 21:56:44 Karpan-Mokaccino_(WMC)-Promo_WEB-2019-CBR_INT
2019-03-25 21:57:14 ShockChallenge.2019.03.23.Nelly.Fiddled.And.Shocked.XXX.1080p.MP4-hUSHhUSH
2019-03-25 21:57:50 Conejo-Vendetta-WEB-2018-ENRAGED
2019-03-25 21:57:57 Conejo-Vendetta_2-WEB-2019-ENRAGED
2019-03-25 21:58:08 HYC_Fatty-On_1-SINGLE-WEB-2019-ENRAGED
2019-03-25 21:59:45 Home.Town.2017.S03E11.Southern.Coastal.Style.720p.WEBRip.x264-CAFFEiNE
2019-03-25 21:59:57 LinkedIn.Learning.Learning.Mastercam.For.Solidworks-SHEPHERDS
2019-03-25 22:01:01 Ice_and_Diaz-Pills_(WMC)-Promo_WEB-2019-CBR_INT
2019-03-25 22:01:44 Ras.S01E21.NORWEGiAN.720p.HDTV.x264-NORPiLT
2019-03-25 22:02:00 Home.Town.2017.S03E11.Southern.Coastal.Style.WEBRip.x264-CAFFEiNE
2019-03-25 22:02:48 Gidseltagningen.S02E01.INTERNAL.DANISH.720p.WEBRip.x264-BALLIN
2019-03-25 22:03:00 Auto.Ikonen.Opel.Kapitaen.Der.deutsche.Strassenkreuzer.GERMAN.DOKU.720p.HDTV.x264-TMSF
2019-03-25 22:03:02 Skiavo_Vindes_and_Mathias_D.-Party_Dont_Stop_(WMC)-Promo_WEB-2019-CBR_INT
2019-03-25 22:03:15 Auto.Ikonen.Opel.Kapitaen.Der.deutsche.Strassenkreuzer.GERMAN.DOKU.WS.HDTVRip.x264-TMSF
2019-03-25 22:03:21 Gidseltagningen.S02E01.DANISH.1080p.WEBRip.x264-BALLIN
2019-03-25 22:03:30 Alla.Mot.Alla.Med.Filip.Och.Fredrik.S01E13.SWEDiSH.720p.WEB.X264-EXECUTION
2019-03-25 22:04:00 Mjstk_and_Puro-Hijo_De_La_Luna_(WMC)-Promo_WEB-2019-CBR_INT
2019-03-25 22:04:18 Das.unsichtbare.Kairo.-.Geheimnisvolle.Unterwelt.GERMAN.DOKU.720p.HDTV.x264-TMSF
2019-03-25 22:04:38 Alla.Mot.Alla.Med.Filip.Och.Fredrik.S01E13.SWEDiSH.1080p.WEB.X264-EXECUTION
2019-03-25 22:04:42 Gidseltagningen.S02E02.DANISH.720p.WEBRip.x264-BALLIN
2019-03-25 22:05:01 Co_Chapo-Hungry_4_Success_The_Come_Up-WEB-2017-ENRAGED
2019-03-25 22:05:13 Smirk_Vargas-Picture_Me_Rollin_2-WEB-2017-ENRAGED
2019-03-25 22:05:19 Roger.Cicero.Ein.Leben.fuer.die.Musik.GERMAN.DOKU.720p.HDTV.x264-TMSF
2019-03-25 22:05:27 Smirk_Vargas-Vargas4Life-WEB-2019-ENRAGED
2019-03-25 22:05:35 Travy_Nostra-Case_Closed-WEB-2019-ENRAGED
2019-03-25 22:05:46 Travy_Nostra-Penny_World-WEB-2018-ENRAGED
2019-03-25 22:05:51 Lucky_Vegas-Looking_Into_My_Soul_(WMC)-Promo_WEB-2019-CBR_INT
2019-03-25 22:05:58 Zone_Hefner-Thoughts_of_the_Real-WEB-2019-ENRAGED
2019-03-25 22:06:20 Roger.Cicero.Ein.Leben.fuer.die.Musik.GERMAN.DOKU.WS.HDTVRip.x264-TMSF
2019-03-25 22:06:39 Imany-Live_At_Olympia_Paris_(2016-11-14)-1080p-x264-2016-gFViD
2019-03-25 22:08:49 Imany-Live_At_Olympia_Paris_(2016-11-14)-720p-x264-2016-gFViD
2019-03-25 22:10:25 Hotfuss-Patytime_(WMC)-Promo_WEB-2019-CBR_INT
2019-03-25 22:11:00 Imany-Live_At_Olympia_Paris_(2016-11-14)-x264-2016-gFViD
2019-03-25 22:11:45 Vinylsurfer_Chris_Montana-Sol_(WMC)-Promo_WEB-2019-CBR_INT
2019-03-25 22:13:02 High.Maintenance.S03E09.FiNAL.MULTi.1080p.HDTV.x264-HYBRiS
2019-03-25 22:13:50 Victor_Nillo_and_Antho_Decks-Jincho_(WMC)-Promo_WEB-2019-CBR_INT
2019-03-25 22:19:09 VEGA-Do_It_I_Want_(WMC)-Promo_WEB-2019-CBR_INT
2019-03-25 22:19:41 Free.Solo.2018.DOC.FRENCH.1080p.HDTV.H264-DEAL
2019-03-25 22:20:05 Diozo_Dudu_Capoeira-Cavalero_(WMC)-Promo_WEB-2019-CBR_INT
2019-03-25 22:20:14 Abstract_Rude-Making_Lava_Tracks-WEB-2019-ENRAGED
2019-03-25 22:20:24 Anonymuz-There_Is_No_Threat-WEB-2019-ENRAGED
2019-03-25 22:20:35 Hipcut-Hip_Society-WEB-2019-ENRAGED
2019-03-25 22:20:46 Knowledge_the_Pirate-Black_Cesar-WEB-2019-ENRAGED
2019-03-25 22:20:57 Mlodic-Neverland-WEB-2018-ENRAGED
2019-03-25 22:21:23 Stik_Figa_and_Rob_Viktum-All_Gods_Dangers-WEB-2019-ENRAGED
2019-03-25 22:22:11 Free.Solo.2018.DOC.FRENCH.720p.HDTV.x264-DEAL
2019-03-25 22:22:21 VA_Artefact_Records-WMC_2019_Sampler-WEB-2019-CBR_INT
2019-03-25 22:24:58 Enzo_Conte-Crazy_Sax_(WMC)-Promo_WEB-2019-CBR_INT
2019-03-25 22:27:51 Valerio_Music-Pure_House-WEB-2019-CBR_INT
2019-03-25 22:28:39 Warren.S01E05.720p.HDTV.x264-ANGELiC
2019-03-25 22:28:48 Young.Sheldon.S02E12.Bauchweh.Kaeptn.Ahab.und.ein.Loch.im.Herzen.GERMAN.DUBBED.DL.1080p.WebHD.x264-TVP
2019-03-25 22:30:47 Young.Sheldon.S02E12.Bauchweh.Kaeptn.Ahab.und.ein.Loch.im.Herzen.GERMAN.DUBBED.DL.720p.WebHD.x264-TVP
2019-03-25 22:31:21 Les.Bracelets.Rouges.S02E05.FRENCH.HDTV.x264-AMB3R
2019-03-25 22:33:44 Paradise.Hotel.S11E09.NORWEGiAN.720p.HDTV.x264-TvNORGE
2019-03-25 22:33:58 VA-Asana_Relaxation_Vol_6-(ARUY187)-WEB-2019-CBR
2019-03-25 22:36:11 Kerka-Darkside_Playa-Tape-DE-2018-NOiR
2019-03-25 22:36:15 VA-Asana_Relaxation_Vol_5-(ARUY186)-WEB-2019-CBR
2019-03-25 22:37:00 The.Walking.Dead.S09E15.Die.Ruhe.davor.GERMAN.DUBBED.DL.1080p.WebHD.x264-TVP
2019-03-25 22:37:04 Aasted.Norge.S07E03.NORWEGiAN.720p.HDTV.x264-NORPiLT
2019-03-25 22:38:22 En.Fabulous.Familie.S01E02.DANiSH.720p.HDTV.x264-DiViSiON
2019-03-25 22:40:06 Warren.S01E05.HDTV.x264-RiVER
2019-03-25 22:41:04 Kerka-Triebgesteuert_EP_Vol._1-Tape-DE-2018-NOiR
2019-03-25 22:42:25 Less_People-Self_Reflection-(CR119)-WEB-2019-CBR
2019-03-25 22:42:54 Kerka-Triebgesteuert_EP_Vol._2-Tape-DE-2019-NOiR
2019-03-25 22:44:54 Seven-F03_Die_Stadt_Der_Goetter-Audiobook-DE-2019-VOiCE
2019-03-25 22:46:17 VA-The_Mason_Metalfest_Compilation_Vol._1-CD-FLAC-2019-FATHEAD
2019-03-25 22:47:08 The.Walking.Dead.S09E15.Die.Ruhe.davor.German.Dubbed.HDTV.x264-ITG
2019-03-25 22:47:22 VA-The_Mason_Metalfest_Compilation_Vol._1-CD-2019-FATHEAD
2019-03-25 22:50:34 The.Walking.Dead.S09E15.Die.Ruhe.davor.GERMAN.DUBBED.720p.HDTV.x264-ZZGtv
2019-03-25 22:50:41 SWART-Revenant_EP-WEB-2019-WAV
2019-03-25 22:51:21 Ancestor-Zero_Tolerance_EP-REPACK-WEB-2019-WAV
2019-03-25 22:51:47 Edit_Select-EDITSELECT044V-REPACK-WEB-2019-WAV
2019-03-25 22:52:10 Keikari-Karsia_EP-REPACK-WEB-2019-WAV
2019-03-25 22:52:24 VA-Perception-REPACK-WEB-2019-WAV
2019-03-25 22:56:57 VA-Miami_Opening_Party_2019-(BAK109)-WEB-2019-CBR
2019-03-25 23:02:38 Kendisfamilier.S01E06.DANiSH.720p.HDTV.x264-iMCARE
2019-03-25 23:02:52 Kendisfamilier.S01E07.DANiSH.720p.HDTV.x264-iMCARE
2019-03-25 23:03:02 Kendisfamilier.S01E08.DANiSH.720p.HDTV.x264-iMCARE
2019-03-25 23:03:22 Nastee_Nev-0808_Sweetsoul_(Deluxe_Edition)-(G010003192114R)-WEB-2019-CBR
2019-03-25 23:03:28 Debatten.2019.03.14.Tillid.Til.Politik.DANiSH.720p.HDTV.x264-iMCARE
2019-03-25 23:03:50 Horisont.Olie.Eventyr.Paa.Kogepunktet.DANiSH.720p.HDTV.x264-iMCARE
2019-03-25 23:04:06 Horisont.Narkobaronens.Fald.DANiSH.720p.HDTV.x264-iMCARE
2019-03-25 23:05:31 Gidseltagningen.S02E02.DANISH.1080p.WEBRip.x264-BALLIN
2019-03-25 23:06:42 NFL.Super.Bowl.LIII.2019.02.03.Patriots.vs.Rams.DANiSH.720p.HDTV.x264-iMCARE
2019-03-25 23:09:10 Le.Vieil.Homme.Et.La.Cigogne.2017.DOC.FRENCH.WEB.H264-SLiP
2019-03-25 23:10:19 Le.Vieil.Homme.Et.La.Cigogne.2017.DOC.FRENCH.720p.WEB.H264-SLiP
2019-03-25 23:16:24 Hot.Streets.S02E09.720p.HDTV.x264-MiNDTHEGAP
2019-03-25 23:16:37 Hot.Streets.S02E10.720p.HDTV.x264-MiNDTHEGAP
2019-03-25 23:16:52 Hot.Streets.S02E09.HDTV.x264-MiNDTHEGAP
2019-03-25 23:17:07 Hot.Streets.S02E10.HDTV.x264-MiNDTHEGAP
2019-03-25 23:18:01 Les.Bracelets.Rouges.S02E05.FRENCH.720p.HDTV.x264-SH0W
2019-03-25 23:18:04 Les.Bracelets.Rouges.S02E06.FRENCH.720p.HDTV.x264-SH0W
2019-03-25 23:19:23 The_Walking_Dead-The_Final_Season_NSW-LiGHTFORCE
2019-03-25 23:19:44 Les.Superpouvoirs.De.L.Urine.2013.DOC.FRENCH.WEB.H264-SLiP
2019-03-25 23:20:33 Les.Superpouvoirs.De.L.Urine.2013.DOC.FRENCH.720p.WEB.H264-SLiP
2019-03-25 23:23:23 American.Gods.S02E03.FRENCH.WEB.H264-BEACHPLEASE
2019-03-25 23:30:46 Norvege.L.Appel.Du.Merveilleux.2018.DOC.FRENCH.WEB.H264-SLiP
2019-03-25 23:32:01 Norvege.L.Appel.Du.Merveilleux.2018.DOC.FRENCH.720p.WEB.H264-SLiP
2019-03-25 23:35:35 Slutever.2018.S02E07.HDTV.x264-YesTV
2019-03-25 23:35:36 Slutever.2018.S02E07.720p.HDTV.x264-YesTV
2019-03-25 23:36:16 This.Is.Not.Happening.2015.S04E18.HDTV.x264-YesTV
2019-03-25 23:36:18 This.Is.Not.Happening.2015.S04E18.720p.HDTV.x264-YesTV
2019-03-25 23:36:50 Ridiculousness.S13E22.HDTV.x264-YesTV
2019-03-25 23:36:56 Ridiculousness.S13E22.720p.HDTV.x264-YesTV
2019-03-25 23:37:02 Les.Bracelets.Rouges.S02E06.FRENCH.HDTV.x264-AMB3R
2019-03-25 23:37:16 Ridiculousness.S13E23.HDTV.x264-YesTV
2019-03-25 23:37:18 Ridiculousness.S13E23.720p.HDTV.x264-YesTV
2019-03-25 23:37:35 Ridiculousness.S13E24.HDTV.x264-YesTV
2019-03-25 23:37:41 Ridiculousness.S13E24.720p.HDTV.x264-YesTV
2019-03-25 23:40:07 60.Minutes.S51E23.1080p.WEB.x264-LiGATE
2019-03-25 23:41:27 60.Minutes.S51E23.720p.WEB.x264-LiGATE
2019-03-25 23:42:25 60.Minutes.S51E23.WEB.x264-LiGATE
2019-03-25 23:43:50 48.Hours.S31E22.1080p.WEB.x264-LiGATE
2019-03-25 23:46:12 LinkedIn.Learning.Ethical.Hacking.Denial.Of.Service-SHEPHERDS
2019-03-25 23:46:28 48.Hours.S31E23.1080p.WEB.x264-LiGATE
2019-03-25 23:49:02 48.Hours.S31E24.1080p.WEB.x264-LiGATE
2019-03-25 23:49:24 Natholdet.S18E29.DANiSH.720p.HDTV.x264-DiViSiON
2019-03-25 23:51:15 48.Hours.S31E25.1080p.WEB.x264-LiGATE
2019-03-25 23:51:45 We.Swing.Both.Ways.3.XXX.iNTERNAL.1080p.WEBRiP.MP4-GUSH
2019-03-25 23:52:33 48.Hours.S31E26.1080p.WEB.x264-LiGATE
2019-03-25 23:53:12 Seattle.Firefighters.Die.jungen.Helden.S02E01.GERMAN.DUBBED.WEBRiP.x264-idTV
2019-03-25 23:53:25 Seattle.Firefighters.Die.jungen.Helden.S02E01.GERMAN.DUBBED.720p.WEB.h264-idTV
2019-03-25 23:54:34 48.Hours.S31E27.1080p.WEB.x264-LiGATE
2019-03-25 23:55:55 Seattle.Firefighters.Die.jungen.Helden.S02E01.GERMAN.DL.DUBBED.1080p.WEB.h264-VoDTv
2019-03-25 23:56:27 48.Hours.S31E28.1080p.WEB.x264-LiGATE
2019-03-25 23:58:41 Decouverte.2019.03.17.DOC.FRENCH.720p.HDTV.x264-BAWLS
2019-03-25 23:58:45 48.Hours.S31E23.720p.WEB.x264-LiGATE
2019-03-25 23:58:59 Greys.Anatomy.S15E03.GERMAN.DL.DUBBED.1080p.WEB.h264-VoDTv
2019-03-25 23:59:01 Enquete.2019.03.21.DOC.FRENCH.720p.HDTV.x264-BAWLS
2019-03-25 23:59:16 Decouverte.2019.03.17.DOC.FRENCH.HDTV.x264-BAWLS
2019-03-25 23:59:24 Enquete.2019.03.21.DOC.FRENCH.HDTV.x264-BAWLS
2019-03-25 23:59:31 La.Facture.2019.03.19.DOC.FRENCH.720p.HDTV.x264-BAWLS
2019-03-25 23:59:39 La.Facture.2019.03.19.DOC.FRENCH.HDTV.x264-BAWLS
2019-03-25 23:59:52 Ici.Laflaque.S15E20.FRENCH.720p.HDTV.x264-BAWLS